Radiosonde details



Informationen :

Serial : X0324594
Type : Vaisala RS41-SGP
Date of production : 14.01.2025
Frequency : 401.600MHz
Launchsite : Poprad
Nearest town : Lima, PE (1.4km)

Altitude (Max) : 30824m at 2026-09-03 13:07:56
Speed (Max) : 511km/h at altitude 1768m

Average speed : 85km/h
Average ascent rate : 4m/s
Average descent rate : -1m/s
Ascent rate (Max) : 48.2m/s
Descent rate (Max): -11.4m/s

First frame :
GYPAP8-17 at 2026-09-03 11:20:14 at altitude 3510m (OG: 3468m)
Last frame :
SQ9EZE-13 at 2026-09-03 13:14:16 at altitude 1698m (OG: 1656m)

Flighttime : 1h54m2s
Ascent time : 1h47m42s
Descent time : 6m20s
Uptime : 55m16s
Killtimer : -

Distance (Straight line distance): 11552km

Distance (Route):


Frames : 1087


Measurement :

Temperature : -49.5°C
Humidity : 1.1%
Pressure : 27.6hPa


Vertical profile (SkewT) :


Elevation profile :



Receiving stations :


Receiver Frames First received Last received
SQ9EZE-13 302 2026-09-03 11:22:47 2026-09-03 13:14:16
SP9KGR-15 199 2026-09-03 11:58:59 2026-09-03 13:13:12
HA6NAB-11 173 2026-09-03 11:35:42 2026-09-03 13:13:45
SP9SOS 130 2026-09-03 11:46:42 2026-09-03 13:14:06
SQ9EZE-14 92 2026-09-03 11:23:19 2026-09-03 13:14:02
GYPAP8-17 90 2026-09-03 11:20:14 2026-09-03 13:14:06
OM5KV 57 2026-09-03 11:26:29 2026-09-03 11:31:55
OE5DRO-10 26 2026-09-03 12:33:01 2026-09-03 13:01:59
LZ4TU-5 12 2026-09-03 12:38:26 2026-09-03 13:13:28
OE3JTB-15 6 2026-09-03 11:28:29 2026-09-03 11:38:54

Share per receiver :



All frames :


Receiver Date Latitude Longitude Direction Speed Altitude Climb Temperature Humidity Pressure Voltage Killtimer Uptime BKT XDATA
SQ9EZE-132026-09-03 13:14:16-12.03347-77.036900km/h1698m0.0m/s-49.5°C1.1%27.6hPa2.7V00:00:0000:00:0000:00:00
SP9SOS2026-09-03 13:14:06-12.03347-77.036900km/h1698m0.0m/s-48.2°C1.1%25.4hPa2.7V00:00:0000:00:0000:00:00
GYPAP8-172026-09-03 13:14:06-12.03347-77.036900km/h1698m0.0m/s-48.2°C1.1%25.4hPa2.7V00:00:0000:00:0000:00:00
SQ9EZE-142026-09-03 13:14:02-12.03347-77.036900km/h1698m0.0m/s-47.0°C1.0%24.4hPa2.7V00:00:0000:00:0000:00:00
SQ9EZE-132026-09-03 13:13:57-12.03347-77.036900km/h1698m0.0m/s-47.0°C1.0%23.4hPa2.7V00:00:0000:00:0000:00:00
SQ9EZE-142026-09-03 13:13:46-12.03347-77.036900km/h1698m0.0m/s-46.0°C0.9%20.9hPa2.7V00:00:0000:00:0000:00:00
HA6NAB-112026-09-03 13:13:45-12.03454-77.0376435°504km/h1710m-11.4m/s-45.9°C0.9%20.7hPa2.7V00:00:0000:00:0000:00:00
SP9SOS2026-09-03 13:13:41-12.03881-77.0405435°504km/h1755m-11.4m/s-44.9°C0.9%19.8hPa2.7V00:00:0000:00:0000:00:00
HA6NAB-112026-09-03 13:13:40-12.03994-77.0413135°504km/h1768m-11.4m/s-44.7°C0.9%19.6hPa2.7V00:00:0000:00:0000:00:00
SQ9EZE-132026-09-03 13:13:37-13.93776-78.733950km/h1231m0.0m/s-44.4°C0.9%19.0hPa2.7V00:00:0000:00:0000:00:00
HA6NAB-112026-09-03 13:13:35-12.04902-77.05252263°204km/h959m-3.7m/s-44.2°C0.9%18.4hPa2.7V00:00:0000:00:0000:00:00
HA6NAB-112026-09-03 13:13:29-13.93776-78.733950km/h1231m0.0m/s-43.5°C0.8%17.5hPa2.7V00:00:0000:00:0000:00:00
LZ4TU-52026-09-03 13:13:28-22.32482-79.592900km/h3064m0.0m/s0°C0%0hPa2.7V00:00:0000:00:0000:00:00
HA6NAB-112026-09-03 13:13:24-13.93776-78.733950km/h1231m0.0m/s-42.9°C0.8%16.6hPa2.7V00:00:0000:00:0000:00:00
LZ4TU-52026-09-03 13:13:23-22.32482-79.592900km/h3064m0.0m/s0°C0%0hPa2.7V00:00:0000:00:0000:00:00
SQ9EZE-132026-09-03 13:13:20-13.93776-78.733950km/h1231m0.0m/s-42.9°C0.8%15.9hPa2.7V00:00:0000:00:0000:00:00
SP9SOS2026-09-03 13:13:15-13.93776-78.733950km/h1231m0.0m/s-41.9°C0.8%15.0hPa2.7V00:00:0000:00:0000:00:00
SP9KGR-152026-09-03 13:13:12-13.30812-80.096860km/h1124m0.0m/s0°C0%0hPa2.7V00:00:0000:00:0000:00:00
HA6NAB-112026-09-03 13:13:12-13.93776-78.733950km/h1231m0.0m/s-41.2°C0.8%14.4hPa2.7V00:00:0000:00:0000:00:00
HA6NAB-112026-09-03 13:13:06-13.93776-78.733950km/h1231m0.0m/s-38.9°C0.6%13.4hPa2.7V00:00:0000:00:0000:00:00
SQ9EZE-132026-09-03 13:13:04-13.93776-78.733950km/h1231m0.0m/s-38.5°C0.6%13.2hPa2.7V00:00:0000:00:0000:00:00
HA6NAB-112026-09-03 13:13:00-13.93776-78.733950km/h1231m0.0m/s-38.3°C0.6%12.4hPa2.7V00:00:0000:00:0000:00:00
GYPAP8-172026-09-03 13:13:00-16.52020-77.501190km/h1716m0.0m/s-38.3°C0.6%12.4hPa2.7V00:00:0000:00:0000:00:00
HA6NAB-112026-09-03 13:12:54-13.93776-78.733950km/h1231m0.0m/s-38.6°C0.6%11.7hPa2.7V00:00:0000:00:0000:00:00
SP9SOS2026-09-03 13:12:50-13.93776-78.733950km/h1231m0.0m/s-38.8°C0.7%11.0hPa2.7V00:00:0000:00:0000:00:00
HA6NAB-112026-09-03 13:12:49-13.93776-78.733950km/h1231m0.0m/s-38.7°C0.7%10.9hPa2.7V00:00:0000:00:0000:00:00
SQ9EZE-132026-09-03 13:12:47-13.93776-78.733950km/h1231m0.0m/s-38.2°C0.7%10.7hPa2.7V00:00:0000:00:0000:00:00
HA6NAB-112026-09-03 13:12:44-13.93776-78.733950km/h1231m0.0m/s-37.3°C0.6%10.3hPa2.7V00:00:0000:00:0000:00:00
SP9KGR-152026-09-03 13:12:41-13.30812-80.096860km/h1124m0.0m/s0°C0%0hPa2.7V00:00:0000:00:0000:00:00
HA6NAB-112026-09-03 13:12:37-13.93776-78.733950km/h1231m0.0m/s-35.9°C0.6%9.4hPa2.7V00:00:0000:00:0000:00:00
HA6NAB-112026-09-03 13:12:32-13.93776-78.733950km/h1231m0.0m/s-34.1°C0.5%8.7hPa2.7V00:00:0000:00:0000:00:00
SQ9EZE-132026-09-03 13:12:31-13.93776-78.733950km/h1231m0.0m/s-33.8°C0.5%8.5hPa2.7V00:00:0000:00:0000:00:00
HA6NAB-112026-09-03 13:12:2735.29544-45.000000km/h30824m0.0m/s-32.7°C0.5%8.1hPa2.7V00:00:0000:00:0000:00:00
SP9KGR-152026-09-03 13:12:26-13.13296-80.529140km/h1095m0.0m/s0°C0%0hPa2.7V00:00:0000:00:0000:00:00
SP9SOS2026-09-03 13:12:25-12.81795-80.569790km/h1044m0.0m/s-31.6°C0.4%7.9hPa2.7V00:00:0000:00:0000:00:00
SQ9EZE-132026-09-03 13:12:15-19.54881-78.361160km/h2377m0.0m/s-30.8°C0.4%6.8hPa2.7V00:00:0000:00:0000:00:00
GYPAP8-172026-09-03 13:12:13-16.52020-77.501190km/h1716m0.0m/s-31.0°C0.4%6.6hPa2.7V00:00:0000:00:0000:00:00
LZ4TU-52026-09-03 13:12:00-22.32482-79.592900km/h3064m0.0m/s0°C0%0hPa2.7V00:00:0000:00:0000:00:00
SP9SOS2026-09-03 13:11:59-16.28947-76.143320km/h1669m0.0m/s-27.3°C0.3%5.2hPa2.7V00:00:0000:00:0000:00:00
SQ9EZE-132026-09-03 13:11:53-19.54881-78.361160km/h2377m0.0m/s-27.0°C0.3%4.8hPa2.7V00:00:0000:00:0000:00:00
SP9SOS2026-09-03 13:11:33-15.58895-77.525270km/h1532m0.0m/s-28.5°C0.3%4.2hPa2.7V00:00:0000:00:0000:00:00
GYPAP8-172026-09-03 13:11:24-22.35907-79.584430km/h3072m0.0m/s-28.9°C0.4%4.2hPa2.7V00:00:0000:00:0000:00:00
SP9SOS2026-09-03 13:11:08-24.32469-76.718340km/h3603m0.0m/s-29.3°C0.4%4.3hPa2.7V00:00:0000:00:0000:00:00
SQ9EZE-132026-09-03 13:11:01-22.35907-79.584430km/h3072m0.0m/s-29.3°C0.4%4.3hPa2.7V00:00:0000:00:0000:00:00
LZ4TU-52026-09-03 13:10:43-22.28269-79.336490km/h3053m0.0m/s0°C0%0hPa2.7V00:00:0000:00:0000:00:00
SP9SOS2026-09-03 13:10:42-22.28269-79.336490km/h3053m0.0m/s-29.0°C0.4%4.4hPa2.7V00:00:0000:00:0000:00:00
LZ4TU-52026-09-03 13:10:37-25.26875-80.345520km/h3870m0.0m/s0°C0%0hPa2.7V00:00:0000:00:0000:00:00
GYPAP8-172026-09-03 13:10:35-35.04295-76.484790km/h7011m0.0m/s-28.7°C0.4%4.4hPa2.7V00:00:0000:00:0000:00:00
SQ9EZE-132026-09-03 13:10:27-12.04066-77.059520km/h983m0.0m/s-28.7°C0.4%4.4hPa2.7V00:00:0000:00:0000:00:00
SP9SOS2026-09-03 13:10:17-12.04066-77.059520km/h983m0.0m/s-28.8°C0.4%4.4hPa2.7V00:00:0000:00:0000:00:00
HA6NAB-112026-09-03 13:10:1535.29544-45.000000km/h30824m0.0m/s-29.0°C0.4%4.4hPa2.7V00:00:0000:00:0000:00:00
SQ9EZE-132026-09-03 13:10:12-12.04066-77.059520km/h983m0.0m/s-29.1°C0.4%4.5hPa2.7V00:00:0000:00:0000:00:00
HA6NAB-112026-09-03 13:10:0835.29544-45.000000km/h30824m0.0m/s-29.0°C0.3%4.5hPa2.7V00:00:0000:00:0000:00:00
SP9SOS2026-09-03 13:09:51-35.04295-76.484790km/h7011m0.0m/s-29.0°C0.4%4.5hPa2.7V00:00:0000:00:0000:00:00
SQ9EZE-132026-09-03 13:09:48-35.04295-76.484790km/h7011m0.0m/s-29.0°C0.4%4.5hPa2.7V00:00:0000:00:0000:00:00
GYPAP8-172026-09-03 13:09:46-35.04295-76.484790km/h7011m0.0m/s-29.0°C0.4%4.5hPa2.7V00:00:0000:00:0000:00:00
SQ9EZE-142026-09-03 13:09:45-35.04295-76.484790km/h7011m0.0m/s-29.0°C0.4%4.5hPa2.7V00:00:0000:00:0000:00:00
SQ9EZE-132026-09-03 13:09:33-25.77220-74.919910km/h4015m0.0m/s-29.1°C0.4%4.6hPa2.7V00:00:0000:00:0000:00:00
SQ9EZE-142026-09-03 13:09:30-25.77220-74.919910km/h4015m0.0m/s-28.9°C0.4%4.6hPa2.7V00:00:0000:00:0000:00:00
SP9SOS2026-09-03 13:09:26-25.77220-74.919910km/h4015m0.0m/s-28.7°C0.4%4.6hPa2.7V00:00:0000:00:0000:00:00
SQ9EZE-132026-09-03 13:09:17-25.26875-80.345520km/h3870m0.0m/s-28.4°C0.4%4.6hPa2.7V00:00:0000:00:0000:00:00
LZ4TU-52026-09-03 13:09:15-25.26875-80.345520km/h3870m0.0m/s0°C0%0hPa2.7V00:00:0000:00:0000:00:00
GYPAP8-172026-09-03 13:09:02-19.27023-81.469120km/h2312m0.0m/s-28.6°C0.4%4.6hPa2.7V00:00:0000:00:0000:00:00
SP9SOS2026-09-03 13:09:0135.29544-45.000000km/h30824m0.0m/s-28.6°C0.3%4.7hPa2.7V00:00:0000:00:0000:00:00
HA6NAB-112026-09-03 13:08:5935.29544-45.000000km/h30824m0.0m/s-28.5°C0.3%4.7hPa2.7V00:00:0000:00:0000:00:00
HA6NAB-112026-09-03 13:08:41-23.59942-82.832430km/h3403m0.0m/s-28.9°C0.4%4.7hPa2.7V00:00:0000:00:0000:00:00
SQ9EZE-132026-09-03 13:08:40-23.59942-82.832430km/h3403m0.0m/s-28.8°C0.3%4.7hPa2.7V00:00:0000:00:0000:00:00
HA6NAB-112026-09-03 13:08:3535.29544-135.000000km/h30824m0.0m/s-29.0°C0.4%4.8hPa2.7V00:00:0000:00:0000:00:00
HA6NAB-112026-09-03 13:08:30-19.27023-81.469120km/h2312m0.0m/s-29.1°C0.4%4.8hPa2.7V00:00:0000:00:0000:00:00
SQ9EZE-132026-09-03 13:08:22-19.27023-81.469120km/h2312m0.0m/s-29.4°C0.4%4.8hPa2.7V00:00:0000:00:0000:00:00
GYPAP8-172026-09-03 13:08:17-19.27023-81.469120km/h2312m0.0m/s-29.2°C0.4%4.8hPa2.7V00:00:0000:00:0000:00:00
SP9SOS2026-09-03 13:08:1035.29544-45.000000km/h30824m0.0m/s-29.3°C0.4%4.8hPa2.7V00:00:0000:00:0000:00:00
LZ4TU-52026-09-03 13:07:5735.29544135.000000km/h30824m0.0m/s0°C0%0hPa2.7V00:00:0000:00:0000:00:00
SQ9EZE-132026-09-03 13:07:5635.29544135.000000km/h30824m0.0m/s-29.5°C0.4%4.9hPa2.7V00:00:0000:00:0000:00:00
LZ4TU-52026-09-03 13:07:53-12.03721-77.04063167°199km/h987m-0.1m/s0°C0%0hPa2.7V00:00:0000:00:0000:00:00
SP9SOS2026-09-03 13:07:44-13.65389-86.908800km/h1182m0.0m/s-29.8°C0.4%4.9hPa2.7V00:00:0000:00:0000:00:00
GYPAP8-172026-09-03 13:03:42-12.03734-77.06377309°299km/h1013m4.3m/s-34.2°C0.5%6.0hPa2.7V00:00:0000:00:0000:00:00
SP9SOS2026-09-03 13:03:30-12.04299-77.05801337°199km/h985m-0.1m/s-34.4°C0.5%6.0hPa2.7V00:00:0000:00:0000:00:00
SQ9EZE-132026-09-03 13:03:30-12.04299-77.05801337°199km/h985m-0.1m/s-34.4°C0.5%6.0hPa2.7V00:00:0000:00:0000:00:00
SQ9EZE-132026-09-03 13:03:13-12.04820-77.05146283°199km/h989m-0.0m/s-34.8°C0.5%6.1hPa2.7V00:00:0000:00:0000:00:00
SP9SOS2026-09-03 13:03:04-12.04799-77.04688254°199km/h990m-0.1m/s-34.7°C0.5%6.1hPa2.7V00:00:0000:00:0000:00:00
SQ9EZE-132026-09-03 13:02:57-12.04636-77.04367231°199km/h988m0.6m/s-34.4°C0.5%6.1hPa2.7V00:00:0000:00:0000:00:00
SQ9EZE-142026-09-03 13:02:53-12.04490-77.04227216°197km/h989m0.6m/s-34.4°C0.5%6.2hPa2.7V00:00:0000:00:0000:00:00
SQ9EZE-132026-09-03 13:02:41-12.03922-77.04039180°199km/h988m0.1m/s-34.4°C0.5%6.2hPa2.7V00:00:0000:00:0000:00:00
SP9SOS2026-09-03 13:02:38-12.03771-77.04053171°199km/h988m-0.0m/s-34.2°C0.5%6.2hPa2.7V00:00:0000:00:0000:00:00
SQ9EZE-142026-09-03 13:02:37-12.03721-77.04063167°199km/h987m-0.1m/s-34.3°C0.5%6.2hPa2.7V00:00:0000:00:0000:00:00
LZ4TU-52026-09-03 13:02:36-12.03672-77.04076164°199km/h987m-0.0m/s0°C0%0hPa2.7V00:00:0000:00:0000:00:00
GYPAP8-172026-09-03 13:02:35-12.03623-77.04092161°199km/h988m0.3m/s-34.3°C0.5%6.2hPa2.7V00:00:0000:00:0000:00:00
LZ4TU-52026-09-03 13:02:32-12.03483-77.04156151°199km/h989m0.3m/s0°C0%0hPa2.7V00:00:0000:00:0000:00:00
SQ9EZE-132026-09-03 13:02:25-12.03222-77.04395129°199km/h990m0.0m/s-34.2°C0.5%6.3hPa2.7V00:00:0000:00:0000:00:00
SP9SOS2026-09-03 13:02:13-12.03032-77.0496890°199km/h990m-0.0m/s-34.5°C0.5%6.3hPa2.7V00:00:0000:00:0000:00:00
SQ9EZE-132026-09-03 13:02:10-12.03046-77.0512181°199km/h990m0.1m/s-34.6°C0.5%6.3hPa2.7V00:00:0000:00:0000:00:00
OE5DRO-102026-09-03 13:01:59-12.03303-77.0561345°199km/h989m-0.0m/s-34.9°C2.0%6.4hPa2.7V00:00:0000:00:0000:00:00
HA6NAB-112026-09-03 13:01:56-12.03420-77.0571136°199km/h989m0.1m/s-35.0°C0.5%6.4hPa2.7V00:00:0000:00:0000:00:00
SQ9EZE-132026-09-03 13:01:50-12.03694-77.0584217°199km/h989m-0.1m/s-35.0°C0.5%6.5hPa2.7V00:00:0000:00:0000:00:00
HA6NAB-112026-09-03 13:01:50-12.03694-77.0584217°199km/h989m-0.1m/s-35.0°C0.5%6.5hPa2.7V00:00:0000:00:0000:00:00
SP9SOS2026-09-03 13:01:48-12.03842-77.05871199km/h989m-0.0m/s-35.0°C0.5%6.5hPa2.7V00:00:0000:00:0000:00:00
HA6NAB-112026-09-03 13:01:44-12.03994-77.05874357°199km/h989m-0.0m/s-35.1°C0.5%6.5hPa2.7V00:00:0000:00:0000:00:00
HA6NAB-112026-09-03 13:01:38-12.04288-77.05803338°199km/h989m-0.1m/s-34.7°C0.5%6.5hPa2.7V00:00:0000:00:0000:00:00
SQ9EZE-132026-09-03 13:01:34-12.04464-77.05702325°199km/h989m0.1m/s-34.7°C0.5%6.5hPa2.7V00:00:0000:00:0000:00:00
HA6NAB-112026-09-03 13:01:32-12.04543-77.05637319°199km/h989m-0.0m/s-34.5°C0.5%6.5hPa2.7V00:00:0000:00:0000:00:00
HA6NAB-112026-09-03 13:01:27-12.04704-77.05440303°199km/h989m-0.0m/s-34.3°C0.5%6.6hPa2.7V00:00:0000:00:0000:00:00
SP9SOS2026-09-03 13:01:22-12.04806-77.05206287°199km/h989m-0.0m/s-34.2°C0.5%6.6hPa2.7V00:00:0000:00:0000:00:00
HA6NAB-112026-09-03 13:01:22-12.04806-77.05206287°199km/h989m-0.0m/s-34.2°C0.5%6.6hPa2.7V00:00:0000:00:0000:00:00
OE5DRO-102026-09-03 13:01:21-12.04818-77.05156283°199km/h989m-0.1m/s-34.2°C2.0%6.5hPa2.7V00:00:0000:00:0000:00:00
SQ9EZE-132026-09-03 13:01:18-12.04838-77.05003274°199km/h989m-0.0m/s-34.4°C0.5%6.6hPa2.7V00:00:0000:00:0000:00:00
HA6NAB-112026-09-03 13:01:15-12.04827-77.04799261°199km/h988m-0.3m/s-34.5°C0.5%6.6hPa2.7V00:00:0000:00:0000:00:00
HA6NAB-112026-09-03 13:01:09-12.04748-77.04556245°199km/h989m0.0m/s-34.6°C0.5%6.7hPa2.7V00:00:0000:00:0000:00:00
HA6NAB-112026-09-03 13:01:04-12.04607-77.04342229°199km/h990m-0.0m/s-34.7°C0.5%6.7hPa2.7V00:00:0000:00:0000:00:00
OE5DRO-102026-09-03 13:01:02-12.04535-77.04271222°199km/h990m0.0m/s-34.7°C2.0%6.6hPa2.7V00:00:0000:00:0000:00:00
SQ9EZE-132026-09-03 13:01:01-12.04496-77.04237219°199km/h990m0.1m/s-34.8°C0.5%6.7hPa2.7V00:00:0000:00:0000:00:00
HA6NAB-112026-09-03 13:00:58-12.04370-77.04153210°199km/h991m0.1m/s-34.9°C0.5%6.7hPa2.7V00:00:0000:00:0000:00:00
SP9SOS2026-09-03 13:00:57-12.04325-77.04129206°199km/h991m-0.0m/s-35.0°C0.5%6.7hPa2.7V00:00:0000:00:0000:00:00
HA6NAB-112026-09-03 13:00:52-12.04084-77.04052190°199km/h992m0.2m/s-34.9°C0.5%6.7hPa2.7V00:00:0000:00:0000:00:00
SQ9EZE-132026-09-03 13:00:44-12.03683-77.04075165°199km/h989m-0.0m/s-34.9°C0.5%6.8hPa2.7V00:00:0000:00:0000:00:00
OE5DRO-102026-09-03 13:00:43-12.03635-77.04092161°199km/h990m0.1m/s-34.9°C2.1%6.7hPa2.7V00:00:0000:00:0000:00:00
HA6NAB-112026-09-03 13:00:42-12.03588-77.04111158°199km/h990m0.1m/s-34.9°C0.6%6.8hPa2.7V00:00:0000:00:0000:00:00
HA6NAB-112026-09-03 13:00:37-12.03371-77.04241142°199km/h989m-0.0m/s-34.7°C0.6%6.8hPa2.7V00:00:0000:00:0000:00:00
SP9SOS2026-09-03 13:00:32-12.03170-77.04470123°199km/h989m-0.0m/s-34.7°C0.5%6.9hPa2.7V00:00:0000:00:0000:00:00
HA6NAB-112026-09-03 13:00:32-12.03170-77.04470123°199km/h989m-0.0m/s-34.7°C0.5%6.9hPa2.7V00:00:0000:00:0000:00:00
SQ9EZE-142026-09-03 13:00:31-12.03170-77.04470123°199km/h989m-0.0m/s-34.7°C0.5%6.9hPa2.7V00:00:0000:00:0000:00:00
OE5DRO-102026-09-03 13:00:24-12.03045-77.04804100°199km/h990m-0.1m/s-34.5°C2.0%6.9hPa2.7V00:00:0000:00:0000:00:00
SQ9EZE-142026-09-03 13:00:17-12.03067-77.0521275°199km/h990m-0.2m/s-34.3°C0.5%7.0hPa2.7V00:00:0000:00:0000:00:00
SQ9EZE-132026-09-03 13:00:12-12.03144-77.0540162°199km/h992m0.3m/s-34.4°C0.5%7.0hPa2.7V00:00:0000:00:0000:00:00
SP9SOS2026-09-03 13:00:05-12.03371-77.0567540°199km/h988m-0.1m/s-34.6°C0.5%7.0hPa2.7V00:00:0000:00:0000:00:00
OE5DRO-102026-09-03 13:00:04-12.03412-77.0570536°199km/h988m-0.7m/s-34.6°C2.1%7.0hPa2.7V00:00:0000:00:0000:00:00
SP9KGR-152026-09-03 13:00:01-12.03542-77.0578427°199km/h989m-0.2m/s-34.8°C0.5%7.1hPa2.7V00:00:0000:00:0000:00:00
OE5DRO-102026-09-03 12:59:57-12.03732-77.0585214°199km/h990m0.1m/s-34.5°C2.0%7.0hPa2.7V00:00:0000:00:0000:00:00
SQ9EZE-132026-09-03 12:59:56-12.03782-77.0586211°199km/h990m-0.0m/s-34.5°C0.5%7.1hPa2.7V00:00:0000:00:0000:00:00
SP9KGR-152026-09-03 12:59:43-12.04414-77.05737329°199km/h989m0.0m/s-34.5°C0.5%7.2hPa2.7V00:00:0000:00:0000:00:00
SP9SOS2026-09-03 12:59:39-12.04573-77.05610316°199km/h990m0.1m/s-34.3°C0.5%7.2hPa2.7V00:00:0000:00:0000:00:00
SQ9EZE-132026-09-03 12:59:39-12.04573-77.05610316°199km/h990m0.1m/s-34.3°C0.5%7.2hPa2.7V00:00:0000:00:0000:00:00
OE5DRO-102026-09-03 12:59:38-12.04608-77.05573312°199km/h990m-0.5m/s-34.2°C2.0%7.2hPa2.7V00:00:0000:00:0000:00:00
OE5DRO-102026-09-03 12:59:34-12.04725-77.05406300°199km/h990m0.0m/s-34.3°C2.0%7.2hPa2.7V00:00:0000:00:0000:00:00
SP9KGR-152026-09-03 12:59:26-12.04838-77.05013275°199km/h990m-0.0m/s-34.4°C0.5%7.3hPa2.7V00:00:0000:00:0000:00:00
SQ9EZE-132026-09-03 12:59:23-12.04834-77.04859265°199km/h991m0.1m/s-34.3°C0.5%7.3hPa2.7V00:00:0000:00:0000:00:00
OE5DRO-102026-09-03 12:59:14-12.04676-77.04431236°199km/h992m0.0m/s-34.3°C2.0%7.3hPa2.7V00:00:0000:00:0008:30:00
SP9SOS2026-09-03 12:59:14-12.04676-77.04430236°199km/h992m0.0m/s-34.4°C0.5%7.3hPa2.7V00:00:0000:00:0000:00:00
SP9KGR-152026-09-03 12:59:08-12.04464-77.04212217°199km/h992m0.0m/s-34.3°C0.5%7.4hPa2.7V00:00:0000:00:0000:00:00
SQ9EZE-132026-09-03 12:59:07-12.04422-77.04183214°199km/h992m0.1m/s-34.2°C0.5%7.4hPa2.7V00:00:0000:00:0000:00:00
OE5DRO-102026-09-03 12:58:55-12.03842-77.04044175°199km/h991m-0.0m/s-34.2°C1.9%7.4hPa2.7V00:00:0000:00:0000:00:00
SQ9EZE-132026-09-03 12:58:52-12.03693-77.04073165°199km/h991m-0.2m/s-34.3°C0.5%7.5hPa2.7V00:00:0000:00:0000:00:00
SP9KGR-152026-09-03 12:58:52-12.03693-77.04073165°199km/h991m-0.2m/s-34.3°C0.5%7.5hPa2.7V00:00:0000:00:0000:00:00
SP9SOS2026-09-03 12:58:49-12.03550-77.04127156°199km/h991m0.0m/s-34.3°C0.5%7.5hPa2.7V00:00:0000:00:0000:00:00
GYPAP8-172026-09-03 12:58:43-12.03302-77.04301137°199km/h990m0.0m/s-34.5°C0.5%7.6hPa2.7V00:00:0000:00:0000:00:00
SP9KGR-152026-09-03 12:58:37-12.03124-77.04550118°197km/h988m-0.2m/s-34.3°C0.5%7.6hPa2.7V00:00:0000:00:0000:00:00
SQ9EZE-132026-09-03 12:58:37-12.03124-77.04550118°197km/h988m-0.2m/s-34.3°C0.5%7.6hPa2.7V00:00:0000:00:0000:00:00
OE5DRO-102026-09-03 12:58:36-12.03103-77.04597114°199km/h988m0.0m/s-34.2°C1.9%7.5hPa2.7V00:00:0000:00:0000:00:00
SP9SOS2026-09-03 12:58:24-12.03064-77.0520176°199km/h990m-0.2m/s-35.1°C0.5%7.7hPa2.7V00:00:0000:00:0000:00:00
HA6NAB-112026-09-03 12:58:23-12.03079-77.0525172°199km/h990m0.1m/s-35.1°C0.5%7.7hPa2.7V00:00:0000:00:0000:00:00
SQ9EZE-132026-09-03 12:58:21-12.03117-77.0534666°199km/h990m-0.0m/s-35.2°C0.5%7.7hPa2.7V00:00:0000:00:0000:00:00
SP9KGR-152026-09-03 12:58:21-12.03117-77.0534666°199km/h990m-0.0m/s-35.2°C0.5%7.7hPa2.7V00:00:0000:00:0000:00:00
HA6NAB-112026-09-03 12:58:16-12.03254-77.0556050°199km/h990m-0.2m/s-35.7°C0.6%7.7hPa2.7V00:00:0000:00:0000:00:00
HA6NAB-112026-09-03 12:58:10-12.03488-77.0575531°199km/h990m-0.0m/s-35.4°C0.6%7.8hPa2.7V00:00:0000:00:0000:00:00
SQ9EZE-142026-09-03 12:58:10-12.03488-77.0575531°199km/h990m-0.0m/s-35.4°C0.6%7.8hPa2.7V00:00:0000:00:0000:00:00
HA6NAB-112026-09-03 12:58:05-12.03723-77.0584915°199km/h990m-0.1m/s-35.4°C0.6%7.8hPa2.7V00:00:0000:00:0000:00:00
SQ9EZE-132026-09-03 12:58:05-12.03723-77.0584915°199km/h990m-0.1m/s-35.4°C0.6%7.8hPa2.7V00:00:0000:00:0000:00:00
HA6NAB-112026-09-03 12:57:59-12.04025-77.05871355°199km/h990m0.1m/s-35.3°C0.6%7.8hPa2.7V00:00:0000:00:0000:00:00
SP9SOS2026-09-03 12:57:59-12.04025-77.05871355°199km/h990m0.1m/s-35.3°C0.6%7.8hPa2.7V00:00:0000:00:0000:00:00
SQ9EZE-142026-09-03 12:57:55-12.04222-77.05828343°199km/h990m0.1m/s-35.3°C0.6%7.9hPa2.7V00:00:0000:00:0000:00:00
SP9SOS2026-09-03 12:57:33-12.04840-77.04972272°199km/h991m0.1m/s-34.9°C0.5%8.0hPa2.7V00:00:0000:00:0000:00:00
SQ9EZE-132026-09-03 12:57:29-12.04821-77.04768259°199km/h990m-0.1m/s-35.0°C0.5%8.0hPa2.7V00:00:0000:00:0000:00:00
SQ9EZE-132026-09-03 12:57:13-12.04342-77.04134204°186km/h995m4.9m/s-35.0°C0.5%8.1hPa2.7V00:00:0000:00:0000:00:00
SP9SOS2026-09-03 12:57:07-12.04054-77.04047188°199km/h990m0.1m/s-35.2°C0.5%8.2hPa2.7V00:00:0000:00:0000:00:00
SQ9EZE-132026-09-03 12:56:55-12.03470-77.04169150°199km/h992m-0.3m/s-35.2°C0.5%8.2hPa2.7V00:00:0000:00:0000:00:00
SP9SOS2026-09-03 12:56:41-12.03060-77.04733105°199km/h991m-0.0m/s-35.3°C0.5%8.3hPa2.7V00:00:0000:00:0000:00:00
SQ9EZE-132026-09-03 12:56:33-12.03051-77.0514179°199km/h991m0.2m/s-35.1°C0.5%8.4hPa2.7V00:00:0000:00:0000:00:00
GYPAP8-172026-09-03 12:56:31-12.03077-77.0524073°199km/h991m0.0m/s-35.1°C0.5%8.4hPa2.7V00:00:0000:00:0000:00:00
HA6NAB-112026-09-03 12:56:20-12.03396-77.0569338°199km/h990m0.0m/s-35.6°C0.5%8.5hPa2.7V00:00:0000:00:0000:00:00
SP9SOS2026-09-03 12:56:16-12.03571-77.0579625°199km/h993m0.3m/s-35.8°C0.5%8.5hPa2.7V00:00:0000:00:0000:00:00
HA6NAB-112026-09-03 12:56:15-12.03617-77.0581622°199km/h993m0.1m/s-36.0°C0.6%8.5hPa2.7V00:00:0000:00:0000:00:00
SQ9EZE-132026-09-03 12:56:12-12.03763-77.0585812°199km/h992m-0.1m/s-36.2°C0.6%8.5hPa2.7V00:00:0000:00:0000:00:00
HA6NAB-112026-09-03 12:56:10-12.03863-77.05872199km/h993m-0.0m/s-36.3°C0.6%8.5hPa2.7V00:00:0000:00:0000:00:00
HA6NAB-112026-09-03 12:56:03-12.04213-77.05831343°199km/h993m-0.0m/s-36.5°C0.6%8.6hPa2.7V00:00:0000:00:0000:00:00
HA6NAB-112026-09-03 12:55:57-12.04481-77.05690324°199km/h993m0.0m/s-36.5°C0.6%8.6hPa2.7V00:00:0000:00:0000:00:00
SQ9EZE-132026-09-03 12:55:56-12.04521-77.05658321°199km/h993m0.1m/s-36.5°C0.6%8.6hPa2.7V00:00:0000:00:0000:00:00
HA6NAB-112026-09-03 12:55:51-12.04688-77.05466305°199km/h993m0.1m/s-36.3°C0.6%8.7hPa2.7V00:00:0000:00:0000:00:00
SP9SOS2026-09-03 12:55:51-12.04688-77.05466305°199km/h993m0.1m/s-36.3°C0.6%8.7hPa2.7V00:00:0000:00:0000:00:00
SQ9EZE-142026-09-03 12:55:44-12.04823-77.05135282°201km/h994m-0.4m/s-36.3°C0.6%8.7hPa2.7V00:00:0000:00:0000:00:00
SQ9EZE-132026-09-03 12:55:40-12.04840-77.04930269°199km/h996m0.1m/s-36.4°C0.6%8.8hPa2.7V00:00:0000:00:0000:00:00
SQ9EZE-142026-09-03 12:55:29-12.04660-77.04404234°199km/h993m-0.6m/s-36.6°C0.6%8.8hPa2.7V00:00:0000:00:0000:00:00
SP9SOS2026-09-03 12:55:26-12.04559-77.04289224°199km/h993m-0.4m/s-36.7°C0.6%8.9hPa2.7V00:00:0000:00:0000:00:00
SQ9EZE-132026-09-03 12:55:24-12.04482-77.04223218°199km/h994m-0.1m/s-36.8°C0.6%8.9hPa2.7V00:00:0000:00:0000:00:00
SQ9EZE-142026-09-03 12:55:13-12.03963-77.04040183°199km/h991m0.0m/s-36.9°C0.6%9.0hPa2.7V00:00:0000:00:0000:00:00
SQ9EZE-132026-09-03 12:55:05-12.03569-77.04118157°199km/h993m0.1m/s-36.8°C0.6%9.0hPa2.7V00:00:0000:00:0000:00:00
SP9SOS2026-09-03 12:55:00-12.03355-77.04254141°199km/h992m0.1m/s-36.9°C0.6%9.1hPa2.7V00:00:0000:00:0000:00:00
SQ9EZE-132026-09-03 12:54:48-12.03050-77.04774103°199km/h992m0.3m/s-37.2°C0.6%9.2hPa2.7V00:00:0000:00:0000:00:00
HA6NAB-112026-09-03 12:54:43-12.03034-77.0502986°199km/h992m-0.0m/s-37.3°C0.6%9.2hPa2.7V00:00:0000:00:0000:00:00
HA6NAB-112026-09-03 12:54:37-12.03108-77.0532766°201km/h991m0.0m/s-37.3°C0.6%9.3hPa2.7V00:00:0000:00:0000:00:00
SP9SOS2026-09-03 12:54:35-12.03154-77.0541961°199km/h991m-0.0m/s-37.4°C0.6%9.3hPa2.7V00:00:0000:00:0000:00:00
HA6NAB-112026-09-03 12:54:33-12.03241-77.0554551°199km/h991m0.0m/s-37.7°C0.6%9.3hPa2.7V00:00:0000:00:0000:00:00
HA6NAB-112026-09-03 12:54:26-12.03471-77.0574532°199km/h991m0.0m/s-37.8°C0.6%9.3hPa2.7V00:00:0000:00:0000:00:00
OE5DRO-102026-09-03 12:54:22-12.03654-77.0583019°199km/h991m0.0m/s-37.9°C2.2%9.3hPa2.7V00:00:0000:00:0000:00:00
HA6NAB-112026-09-03 12:54:21-12.03703-77.0584416°199km/h991m0.2m/s-38.0°C0.6%9.4hPa2.6V00:00:0000:00:0000:00:00
SQ9EZE-132026-09-03 12:54:16-12.03953-77.05875360°199km/h991m0.1m/s-38.0°C0.6%9.4hPa2.6V00:00:0000:00:0000:00:00
HA6NAB-112026-09-03 12:54:15-12.04004-77.05872357°199km/h991m-0.1m/s-38.0°C0.6%9.4hPa2.6V00:00:0000:00:0000:00:00
SP9SOS2026-09-03 12:54:10-12.04250-77.05817341°199km/h991m0.0m/s-38.4°C0.6%9.5hPa2.6V00:00:0000:00:0000:00:00
HA6NAB-112026-09-03 12:54:10-12.04250-77.05817341°199km/h991m0.0m/s-38.4°C0.6%9.5hPa2.6V00:00:0000:00:0000:00:00
HA6NAB-112026-09-03 12:54:04-12.04512-77.05664321°199km/h990m0.0m/s-38.2°C0.6%9.5hPa2.6V00:00:0000:00:0000:00:00
OE5DRO-102026-09-03 12:54:03-12.04550-77.05630318°199km/h990m-0.5m/s-38.3°C2.3%9.5hPa2.6V00:00:0000:00:0000:00:00
GYPAP8-172026-09-03 12:54:01-12.04620-77.05556312°199km/h991m-0.0m/s-38.5°C0.6%9.5hPa2.6V00:00:0000:00:0000:00:00
SQ9EZE-132026-09-03 12:54:00-12.04652-77.05516309°199km/h990m-0.0m/s-38.5°C0.6%9.5hPa2.6V00:00:0000:00:0000:00:00
HA6NAB-112026-09-03 12:53:58-12.04709-77.05431302°199km/h991m-0.0m/s-38.4°C0.6%9.5hPa2.6V00:00:0000:00:0000:00:00
OE5DRO-102026-09-03 12:53:55-12.04776-77.05293292°199km/h991m-0.0m/s-38.5°C2.3%9.5hPa2.6V00:00:0000:00:0000:00:00
HA6NAB-112026-09-03 12:53:52-12.04820-77.05145283°199km/h991m0.0m/s-38.6°C0.6%9.6hPa2.6V00:00:0000:00:0000:00:00
HA6NAB-112026-09-03 12:53:46-12.04832-77.04838264°199km/h991m-0.0m/s-38.8°C0.6%9.7hPa2.6V00:00:0000:00:0000:00:00
SQ9EZE-132026-09-03 12:53:45-12.04824-77.04787260°199km/h991m0.0m/s-38.8°C0.6%9.7hPa2.6V00:00:0000:00:0000:00:00
SP9SOS2026-09-03 12:53:44-12.04813-77.04737257°199km/h992m0.0m/s-38.7°C0.6%9.7hPa2.6V00:00:0000:00:0000:00:00
SP9KGR-152026-09-03 12:53:38-12.04693-77.04456238°199km/h992m-0.1m/s-38.9°C0.6%9.7hPa2.6V00:00:0000:00:0000:00:00
OE5DRO-102026-09-03 12:53:36-12.04633-77.04372231°199km/h992m-0.1m/s-38.8°C2.4%9.7hPa2.6V00:00:0000:00:0000:00:00
SQ9EZE-132026-09-03 12:53:28-12.04315-77.04124206°199km/h992m0.0m/s-39.1°C0.7%9.8hPa2.7V00:00:0000:00:0000:00:00
SP9KGR-152026-09-03 12:53:21-12.03973-77.04040183°199km/h991m-0.1m/s-39.1°C0.7%9.9hPa2.7V00:00:0000:00:0000:00:00
SP9SOS2026-09-03 12:53:19-12.03872-77.04041177°199km/h991m0.1m/s-39.2°C0.6%9.9hPa2.7V00:00:0000:00:0000:00:00
OE5DRO-102026-09-03 12:53:17-12.03772-77.04054170°199km/h991m-0.0m/s-39.1°C2.4%9.9hPa2.7V00:00:0000:00:0000:00:00
SQ9EZE-132026-09-03 12:53:12-12.03532-77.04135154°199km/h991m-0.0m/s-39.2°C0.6%10.0hPa2.7V00:00:0000:00:0000:00:00
SP9KGR-152026-09-03 12:53:06-12.03288-77.04316135°199km/h990m0.1m/s-39.4°C0.7%10.0hPa2.7V00:00:0000:00:0000:00:00
SQ9EZE-142026-09-03 12:53:05-12.03254-77.04354132°199km/h991m0.1m/s-39.4°C0.6%10.0hPa2.7V00:00:0000:00:0000:00:00
SQ9EZE-132026-09-03 12:52:56-12.03052-77.04763103°199km/h989m-0.0m/s-39.5°C0.6%10.1hPa2.7V00:00:0000:00:0000:00:00
OE5DRO-102026-09-03 12:52:55-12.03043-77.04813100°199km/h990m0.1m/s-39.5°C2.4%10.0hPa2.7V00:00:0000:00:0000:00:00
SP9SOS2026-09-03 12:52:54-12.03036-77.0486497°199km/h990m0.0m/s-39.5°C0.7%10.1hPa2.7V00:00:0000:00:0000:00:00
SP9KGR-152026-09-03 12:52:50-12.03039-77.0506984°199km/h990m0.0m/s-39.7°C0.7%10.1hPa2.7V00:00:0000:00:0000:00:00
SQ9EZE-142026-09-03 12:52:49-12.03046-77.0511981°199km/h990m0.1m/s-39.7°C0.7%10.1hPa2.7V00:00:0000:00:0000:00:00
GYPAP8-172026-09-03 12:52:49-12.03046-77.0511981°199km/h990m0.1m/s-39.7°C0.7%10.1hPa2.7V00:00:0000:00:0000:00:00
OE5DRO-102026-09-03 12:52:36-12.03379-77.0567939°208km/h991m-0.8m/s-40.2°C2.5%10.2hPa2.7V00:00:0000:00:0008:30:00
SP9KGR-152026-09-03 12:52:34-12.03462-77.0573633°199km/h992m-0.1m/s-40.3°C0.7%10.3hPa0V00:00:0000:00:0000:00:00
SQ9EZE-132026-09-03 12:52:31-12.03597-77.0580523°199km/h996m0.1m/s-40.2°C0.7%10.3hPa0V00:00:0000:00:0000:00:00
SP9SOS2026-09-03 12:52:29-12.03695-77.0584017°199km/h1003m0.0m/s-40.2°C0.7%10.3hPa0V00:00:0000:00:0000:00:00
OE5DRO-102026-09-03 12:52:20-12.04252-77.05819335°197km/h990m3.8m/s0°C0%0hPa0V00:00:0000:00:0000:00:00
SP9KGR-152026-09-03 12:52:19-12.04298-77.05798337°199km/h989m0.1m/s-40.3°C0.7%10.4hPa0V00:00:0000:00:0000:00:00
SQ9EZE-132026-09-03 12:52:13-12.04517-77.05668321°199km/h999m-0.0m/s-40.3°C0.7%10.4hPa0V00:00:0000:00:0000:00:00
SP9SOS2026-09-03 12:52:03-12.04808-77.05243285°192km/h991m0.7m/s-40.4°C0.7%10.5hPa0V00:00:0000:00:0000:00:00
OE5DRO-102026-09-03 12:52:01-12.04839-77.05095279°195km/h992m-1.8m/s0°C0%0hPa0V00:00:0000:00:0000:00:00
OE5DRO-102026-09-03 12:51:58-12.04842-77.04942269°199km/h992m-1.5m/s0°C0%0hPa0V00:00:0000:00:0000:00:00
SP9KGR-152026-09-03 12:51:55-12.04834-77.04841261°201km/h992m1.2m/s-40.3°C0.7%10.6hPa0V00:00:0000:00:0000:00:00
SQ9EZE-132026-09-03 12:51:52-12.04800-77.04690254°199km/h990m0.1m/s-40.4°C0.7%10.6hPa0V00:00:0000:00:0000:00:00
SP9KGR-152026-09-03 12:51:39-12.04403-77.04172212°199km/h989m-0.4m/s-39.8°C0.7%10.7hPa0V00:00:0000:00:0000:00:00
SP9SOS2026-09-03 12:51:37-12.04314-77.04124206°199km/h991m-0.4m/s-39.7°C0.7%10.7hPa0V00:00:0000:00:0000:00:00
HA6NAB-112026-09-03 12:51:35-12.04220-77.04087197°201km/h992m0.1m/s-39.6°C0.7%10.8hPa0V00:00:0000:00:0000:00:00
GYPAP8-172026-09-03 12:51:33-12.04122-77.04061193°199km/h992m-0.0m/s-39.6°C0.7%10.8hPa0V00:00:0000:00:0000:00:00
HA6NAB-112026-09-03 12:51:30-12.03971-77.04041183°199km/h992m0.0m/s-39.5°C0.7%10.8hPa0V00:00:0000:00:0000:00:00
HA6NAB-112026-09-03 12:51:25-12.03721-77.04066167°199km/h993m-0.1m/s-39.5°C0.7%10.9hPa0V00:00:0000:00:0000:00:00
SP9KGR-152026-09-03 12:51:23-12.03625-77.04095161°199km/h994m0.1m/s-39.5°C0.7%10.9hPa0V00:00:0000:00:0000:00:00
HA6NAB-112026-09-03 12:51:20-12.03496-77.04153151°199km/h1007m0.1m/s-39.6°C0.7%11.0hPa0V00:00:0000:00:0000:00:00
SQ9EZE-132026-09-03 12:51:20-12.03462-77.04172148°197km/h1027m-0.8m/s-39.5°C0.7%11.0hPa0V00:00:0000:00:0000:00:00
HA6NAB-112026-09-03 12:51:15-12.03690-77.05277306°197km/h1174m19.7m/s-39.3°C0.7%11.0hPa0V00:00:0000:00:0000:00:00
SP9SOS2026-09-03 12:51:12-12.03957-77.0544686°155km/h1351m48.2m/s-39.3°C0.7%11.0hPa0V00:00:0000:00:0000:00:00
HA6NAB-112026-09-03 12:51:09-12.03905-77.05956340°208km/h990m0.1m/s-39.4°C0.7%11.0hPa0V00:00:0000:00:0000:00:00
SP9KGR-152026-09-03 12:51:08-12.03955-77.05936340°208km/h990m0.1m/s-39.5°C0.7%11.0hPa0V00:00:0000:00:0000:00:00
SP9KGR-152026-09-03 12:50:52-12.04652-77.05517308°199km/h990m0.0m/s-39.5°C0.7%11.2hPa0V00:00:0000:00:0000:00:00
SQ9EZE-142026-09-03 12:50:46-12.04793-77.05246289°199km/h990m-0.0m/s-39.4°C0.7%11.3hPa0V00:00:0000:00:0000:00:00
SP9SOS2026-09-03 12:50:46-12.04793-77.05246289°199km/h990m-0.0m/s-39.4°C0.7%11.3hPa0V00:00:0000:00:0000:00:00
SQ9EZE-142026-09-03 12:50:30-12.04692-77.04456238°199km/h988m-0.0m/s-39.4°C0.7%11.4hPa0V00:00:0000:00:0000:00:00
SP9SOS2026-09-03 12:50:21-12.04361-77.04141209°199km/h992m-0.1m/s-39.2°C0.7%11.5hPa0V00:00:0000:00:0000:00:00
SP9KGR-152026-09-03 12:50:21-12.04361-77.04141209°199km/h992m-0.1m/s-39.2°C0.7%11.5hPa0V00:00:0000:00:0000:00:00
GYPAP8-172026-09-03 12:50:21-12.04361-77.04141209°199km/h992m-0.1m/s-39.2°C0.7%11.5hPa0V00:00:0000:00:0000:00:00
SP9KGR-152026-09-03 12:50:05-12.03578-77.04114158°199km/h990m-0.2m/s-39.3°C0.7%11.7hPa0V00:00:0000:00:0000:00:00
HA6NAB-112026-09-03 12:50:04-12.03532-77.04136154°199km/h990m-0.2m/s-39.3°C0.7%11.7hPa0V00:00:0000:00:0000:00:00
HA6NAB-112026-09-03 12:49:58-12.03288-77.04317135°199km/h990m-0.1m/s-39.1°C0.6%11.8hPa0V00:00:0000:00:0000:00:00
SP9SOS2026-09-03 12:49:55-12.03191-77.04436126°199km/h990m-0.1m/s-39.0°C0.6%11.8hPa0V00:00:0000:00:0000:00:00
HA6NAB-112026-09-03 12:49:52-12.03116-77.04570116°199km/h990m-0.1m/s-39.0°C0.7%11.8hPa0V00:00:0000:00:0000:00:00
SP9KGR-152026-09-03 12:49:49-12.03064-77.04714106°199km/h991m-0.1m/s-38.8°C0.6%11.9hPa0V00:00:0000:00:0000:00:00
HA6NAB-112026-09-03 12:49:46-12.03036-77.0486697°199km/h989m-0.0m/s-38.5°C0.6%11.9hPa0V00:00:0000:00:0000:00:00
HA6NAB-112026-09-03 12:49:40-12.03056-77.0517378°199km/h989m-0.1m/s-38.4°C0.6%12.0hPa0V00:00:0000:00:0000:00:00
HA6NAB-112026-09-03 12:49:34-12.03175-77.0545658°199km/h990m-0.1m/s-39.0°C0.6%12.0hPa0V00:00:0000:00:0000:00:00
SQ9EZE-132026-09-03 12:49:34-12.03175-77.0545658°199km/h990m-0.1m/s-39.0°C0.6%12.0hPa0V00:00:0000:00:0000:00:00
SP9KGR-152026-09-03 12:49:33-12.03204-77.0549955°199km/h990m0.1m/s-39.1°C0.6%12.1hPa0V00:00:0000:00:0000:00:00
SP9SOS2026-09-03 12:49:30-12.03303-77.0561645°199km/h991m0.0m/s-39.3°C0.6%12.1hPa0V00:00:0000:00:0000:00:00
SQ9EZE-132026-09-03 12:49:18-12.03842-77.05871199km/h990m0.1m/s-39.7°C0.7%12.2hPa0V00:00:0000:00:0000:00:00
SP9KGR-152026-09-03 12:49:18-12.03842-77.05871199km/h990m0.1m/s-39.7°C0.7%12.2hPa0V00:00:0000:00:0000:00:00
SP9SOS2026-09-03 12:49:05-12.04464-77.05703325°199km/h990m-0.2m/s-40.1°C0.7%12.3hPa0V00:00:0000:00:0000:00:00
SP9KGR-152026-09-03 12:49:01-12.04613-77.05564312°199km/h989m0.0m/s-40.0°C0.7%12.4hPa0V00:00:0000:00:0000:00:00
SQ9EZE-132026-09-03 12:48:53-12.04806-77.05206287°199km/h990m0.0m/s-40.0°C0.7%12.5hPa0V00:00:0000:00:0000:00:00
SP9KGR-152026-09-03 12:48:45-12.04826-77.04798261°199km/h990m0.0m/s-40.3°C0.7%12.6hPa0V00:00:0000:00:0000:00:00
SP9SOS2026-09-03 12:48:39-12.04724-77.04509241°199km/h989m-2.1m/s-40.9°C0.7%12.6hPa0V00:00:0000:00:0000:00:00
SQ9EZE-132026-09-03 12:48:38-12.04670-77.04422235°199km/h990m-0.0m/s-41.0°C0.7%12.6hPa0V00:00:0000:00:0000:00:00
SP9KGR-152026-09-03 12:48:29-12.04369-77.04152210°199km/h991m0.1m/s-41.6°C0.7%12.7hPa0V00:00:0000:00:0000:00:00
SQ9EZE-132026-09-03 12:48:20-12.03933-77.04039181°199km/h991m-0.1m/s-41.8°C0.7%12.8hPa0V00:00:0000:00:0000:00:00
SQ9EZE-142026-09-03 12:48:17-12.03782-77.04053171°197km/h991m1.5m/s-41.9°C0.7%12.8hPa0V00:00:0000:00:0000:00:00
SP9KGR-152026-09-03 12:48:14-12.03635-77.04092162°199km/h990m-0.1m/s-41.9°C0.7%12.9hPa0V00:00:0000:00:0000:00:00
SP9SOS2026-09-03 12:48:14-12.03635-77.04092162°199km/h990m-0.1m/s-41.9°C0.7%12.9hPa0V00:00:0000:00:0000:00:00
SQ9EZE-132026-09-03 12:48:04-12.03228-77.04386130°199km/h990m0.1m/s-42.3°C0.8%13.0hPa0V00:00:0000:00:0000:00:00
SQ9EZE-142026-09-03 12:48:01-12.03143-77.04514120°199km/h988m0.2m/s-42.4°C0.8%13.0hPa0V00:00:0000:00:0000:00:00
SP9KGR-152026-09-03 12:47:58-12.03082-77.04655110°199km/h988m-0.0m/s-42.7°C0.8%13.0hPa0V00:00:0000:00:0000:00:00
HA6NAB-112026-09-03 12:47:54-12.03037-77.0485597°199km/h988m-0.1m/s-42.8°C0.8%13.1hPa0V00:00:0000:00:0000:00:00
HA6NAB-112026-09-03 12:47:49-12.03044-77.0511281°199km/h990m0.0m/s-43.0°C0.8%13.1hPa0V00:00:0000:00:0000:00:00
SP9SOS2026-09-03 12:47:48-12.03054-77.0516378°199km/h990m-0.0m/s-43.0°C0.8%13.2hPa0V00:00:0000:00:0000:00:00
SQ9EZE-132026-09-03 12:47:45-12.03100-77.0530969°199km/h990m-0.0m/s-43.1°C0.8%13.2hPa0V00:00:0000:00:0000:00:00
GYPAP8-172026-09-03 12:47:44-12.03121-77.0535665°199km/h990m0.0m/s-43.2°C0.8%13.2hPa0V00:00:0000:00:0000:00:00
HA6NAB-112026-09-03 12:47:44-12.03121-77.0535665°199km/h990m0.0m/s-43.2°C0.8%13.2hPa0V00:00:0000:00:0000:00:00
SP9KGR-152026-09-03 12:47:42-12.03170-77.0544558°199km/h991m0.7m/s-43.3°C0.8%13.2hPa0V00:00:0000:00:0000:00:00
HA6NAB-112026-09-03 12:47:38-12.03296-77.0560646°199km/h990m-0.0m/s-43.5°C0.8%13.3hPa0V00:00:0000:00:0000:00:00
HA6NAB-112026-09-03 12:47:31-12.03588-77.0580524°199km/h990m-0.0m/s-43.7°C0.8%13.4hPa0V00:00:0000:00:0000:00:00
SQ9EZE-132026-09-03 12:47:29-12.03684-77.0583917°199km/h989m0.0m/s-43.8°C0.8%13.4hPa0V00:00:0000:00:0000:00:00
SP9KGR-152026-09-03 12:47:27-12.03782-77.0586211°199km/h989m-0.0m/s-43.8°C0.8%13.4hPa0V00:00:0000:00:0000:00:00
HA6NAB-112026-09-03 12:47:26-12.03832-77.05869199km/h989m0.0m/s-43.9°C0.8%13.4hPa0V00:00:0000:00:0000:00:00
SP9SOS2026-09-03 12:47:22-12.04035-77.05870355°199km/h990m-0.1m/s-44.1°C0.8%13.5hPa0V00:00:0000:00:0000:00:00
HA6NAB-112026-09-03 12:47:19-12.04182-77.05841343°199km/h990m-3.1m/s-44.2°C0.8%13.5hPa0V00:00:0000:00:0000:00:00
HA6NAB-112026-09-03 12:47:14-12.04414-77.05736329°199km/h993m0.2m/s-44.4°C0.8%13.5hPa0V00:00:0000:00:0000:00:00
SQ9EZE-132026-09-03 12:47:13-12.04456-77.05708326°199km/h993m0.0m/s-44.4°C0.8%13.5hPa0V00:00:0000:00:0000:00:00
SP9KGR-152026-09-03 12:47:12-12.04496-77.05677323°199km/h993m-0.1m/s-44.4°C0.8%13.5hPa0V00:00:0000:00:0000:00:00
HA6NAB-112026-09-03 12:47:08-12.04640-77.05533310°199km/h994m-0.1m/s-44.6°C0.8%13.6hPa0V00:00:0000:00:0000:00:00
SQ9EZE-132026-09-03 12:46:57-12.04837-77.05013275°199km/h994m-0.1m/s-44.6°C0.8%13.7hPa0V00:00:0000:00:0000:00:00
SP9SOS2026-09-03 12:46:57-12.04837-77.05013275°199km/h994m-0.1m/s-44.6°C0.8%13.7hPa0V00:00:0000:00:0000:00:00
SP9KGR-152026-09-03 12:46:56-12.04838-77.04961271°199km/h994m-0.1m/s-44.6°C0.8%13.7hPa0V00:00:0000:00:0000:00:00
SP9KGR-152026-09-03 12:46:41-12.04541-77.04276223°199km/h995m0.0m/s-44.6°C0.9%13.9hPa0V00:00:0000:00:0000:00:00
SP9SOS2026-09-03 12:46:32-12.04143-77.04063194°199km/h992m0.0m/s-44.5°C0.8%14.0hPa0V00:00:0000:00:0000:00:00
GYPAP8-172026-09-03 12:46:29-12.03993-77.04040185°199km/h992m-0.0m/s-44.6°C0.9%14.0hPa0V00:00:0000:00:0000:00:00
SP9KGR-152026-09-03 12:46:25-12.03791-77.04050172°199km/h992m0.1m/s-44.8°C0.8%14.1hPa0V00:00:0000:00:0000:00:00
SP9KGR-152026-09-03 12:46:10-12.03175-77.04460124°199km/h992m0.1m/s-45.3°C0.9%14.3hPa0V00:00:0000:00:0000:00:00
SQ9EZE-132026-09-03 12:46:10-12.03175-77.04460124°199km/h992m0.1m/s-45.3°C0.9%14.3hPa0V00:00:0000:00:0000:00:00
SP9SOS2026-09-03 12:46:06-12.03085-77.04644111°199km/h995m0.0m/s-45.1°C0.9%14.3hPa0V00:00:0000:00:0000:00:00
SQ9EZE-132026-09-03 12:45:54-12.03079-77.0525172°199km/h994m0.1m/s-45.1°C0.9%14.5hPa0V00:00:0000:00:0000:00:00
SP9KGR-152026-09-03 12:45:52-12.03116-77.0534566°199km/h994m0.0m/s-45.1°C0.9%14.5hPa0V00:00:0000:00:0000:00:00
SQ9EZE-142026-09-03 12:45:48-12.03222-77.0552153°199km/h994m-0.1m/s-45.0°C0.9%14.5hPa0V00:00:0000:00:0000:00:00
SP9SOS2026-09-03 12:45:40-12.03533-77.0577927°199km/h991m0.1m/s-45.1°C0.9%14.6hPa0V00:00:0000:00:0000:00:00
SP9KGR-152026-09-03 12:45:37-12.03674-77.0583618°199km/h990m-0.0m/s-44.9°C0.8%14.6hPa0V00:00:0000:00:0000:00:00
SQ9EZE-142026-09-03 12:45:33-12.03924-77.05881360°199km/h988m-1.5m/s-45.0°C0.8%14.7hPa0V00:00:0000:00:0000:00:00
HA6NAB-112026-09-03 12:45:27-12.04173-77.05843346°199km/h992m0.0m/s-45.3°C0.9%14.8hPa0V00:00:0000:00:0000:00:00
SQ9EZE-132026-09-03 12:45:25-12.04269-77.05811339°199km/h993m0.3m/s-45.4°C0.9%14.8hPa0V00:00:0000:00:0000:00:00
HA6NAB-112026-09-03 12:45:22-12.04404-77.05741330°199km/h992m-0.0m/s-45.4°C0.8%14.9hPa0V00:00:0000:00:0000:00:00
SP9KGR-152026-09-03 12:45:21-12.04447-77.05713326°199km/h992m-0.0m/s-45.5°C0.9%14.9hPa0V00:00:0000:00:0000:00:00
HA6NAB-112026-09-03 12:45:16-12.04633-77.05540311°199km/h992m-0.1m/s-45.4°C0.9%14.9hPa0V00:00:0000:00:0000:00:00
SP9SOS2026-09-03 12:45:14-12.04692-77.05456304°199km/h992m-0.1m/s-45.6°C0.9%15.0hPa0V00:00:0000:00:0000:00:00
HA6NAB-112026-09-03 12:45:10-12.04783-77.05273291°199km/h992m-0.2m/s-45.5°C0.9%15.0hPa0V00:00:0000:00:0000:00:00
SQ9EZE-132026-09-03 12:45:09-12.04799-77.05225288°199km/h992m0.1m/s-45.6°C0.9%15.0hPa0V00:00:0000:00:0000:00:00
HA6NAB-112026-09-03 12:45:05-12.04836-77.05023275°199km/h993m-0.1m/s-45.5°C0.9%15.1hPa0V00:00:0000:00:0000:00:00
HA6NAB-112026-09-03 12:44:59-12.04807-77.04717256°199km/h993m0.2m/s-45.7°C0.9%15.2hPa0V00:00:0000:00:0000:00:00
HA6NAB-112026-09-03 12:44:54-12.04708-77.04482240°199km/h994m-0.1m/s-45.4°C0.9%15.2hPa0V00:00:0000:00:0000:00:00
SQ9EZE-132026-09-03 12:44:53-12.04681-77.04439237°199km/h994m0.0m/s-45.4°C0.9%15.2hPa0V00:00:0000:00:0000:00:00
HA6NAB-112026-09-03 12:44:48-12.04511-77.04249221°199km/h995m-0.1m/s-45.4°C0.9%15.3hPa0V00:00:0000:00:0000:00:00
SP9SOS2026-09-03 12:44:48-12.04511-77.04249221°199km/h995m-0.1m/s-45.4°C0.9%15.3hPa0V00:00:0000:00:0000:00:00
SP9KGR-152026-09-03 12:44:43-12.04297-77.04113205°199km/h995m0.1m/s-45.6°C0.9%15.4hPa0V00:00:0000:00:0000:00:00
SQ9EZE-132026-09-03 12:44:37-12.04003-77.04041185°199km/h992m-0.0m/s-45.3°C0.9%15.5hPa0V00:00:0000:00:0000:00:00
SP9KGR-152026-09-03 12:44:23-12.03347-77.04259140°199km/h992m-0.0m/s-45.5°C0.9%15.6hPa0V00:00:0000:00:0000:00:00
SP9SOS2026-09-03 12:44:23-12.03347-77.04259140°199km/h992m-0.0m/s-45.5°C0.9%15.6hPa0V00:00:0000:00:0000:00:00
SQ9EZE-132026-09-03 12:44:21-12.03273-77.04331134°199km/h992m0.0m/s-45.5°C0.9%15.7hPa0V00:00:0000:00:0000:00:00
SQ9EZE-132026-09-03 12:44:02-12.03075-77.0524073°199km/h988m0.0m/s-45.7°C0.9%15.9hPa0V00:00:0000:00:0000:00:00
SP9KGR-152026-09-03 12:44:01-12.03091-77.0528970°199km/h988m-0.0m/s-45.6°C0.9%15.9hPa0V00:00:0000:00:0000:00:00
SP9SOS2026-09-03 12:43:58-12.03157-77.0542860°199km/h987m0.2m/s-45.6°C0.9%16.0hPa0V00:00:0000:00:0000:00:00
SQ9EZE-132026-09-03 12:43:46-12.03614-77.0581621°199km/h993m-0.1m/s-45.7°C0.9%16.1hPa0V00:00:0000:00:0000:00:00
SP9KGR-152026-09-03 12:43:39-12.03962-77.05877359°199km/h993m-0.0m/s-45.2°C0.9%16.2hPa0V00:00:0000:00:0000:00:00
HA6NAB-112026-09-03 12:43:38-12.04012-77.05874356°199km/h993m-0.1m/s-45.2°C0.8%16.3hPa0V00:00:0000:00:0000:00:00
SP9SOS2026-09-03 12:43:32-12.04305-77.05795337°199km/h994m-0.0m/s-45.5°C0.8%16.3hPa0V00:00:0000:00:0000:00:00
HA6NAB-112026-09-03 12:43:30-12.04395-77.05749330°199km/h995m0.0m/s-45.4°C0.9%16.4hPa0V00:00:0000:00:0000:00:00
SQ9EZE-132026-09-03 12:43:28-12.04479-77.05692324°199km/h995m0.1m/s-45.2°C0.9%16.4hPa0V00:00:0000:00:0000:00:00
SP9KGR-152026-09-03 12:43:24-12.04625-77.05549311°199km/h995m0.0m/s-45.4°C0.9%16.4hPa0V00:00:0000:00:0000:00:00
SQ9EZE-142026-09-03 12:43:16-12.04810-77.05186285°199km/h996m0.0m/s-45.4°C0.9%16.6hPa0V00:00:0000:00:0000:00:00
SQ9EZE-132026-09-03 12:43:12-12.04837-77.04984272°199km/h997m1.5m/s-45.5°C0.9%16.6hPa0V00:00:0000:00:0000:00:00
SP9KGR-152026-09-03 12:43:08-12.04820-77.04780260°199km/h996m0.1m/s-45.5°C0.9%16.7hPa0V00:00:0000:00:0000:00:00
SP9SOS2026-09-03 12:43:07-12.04809-77.04730257°199km/h996m-0.0m/s-45.6°C0.9%16.7hPa0V00:00:0000:00:0000:00:00
GYPAP8-172026-09-03 12:43:03-12.04737-77.04539244°199km/h996m-0.0m/s-45.6°C0.9%16.7hPa0V00:00:0000:00:0000:00:00
SQ9EZE-142026-09-03 12:43:01-12.04686-77.04450237°199km/h996m-0.1m/s-45.6°C0.9%16.7hPa0V00:00:0000:00:0000:00:00
SQ9EZE-132026-09-03 12:42:56-12.04518-77.04259221°199km/h995m0.0m/s-45.7°C0.9%16.8hPa0V00:00:0000:00:0000:00:00
SP9SOS2026-09-03 12:42:42-12.03855-77.04047176°201km/h989m0.4m/s-46.2°C0.9%17.0hPa0V00:00:0000:00:0000:00:00
SP9KGR-152026-09-03 12:42:42-12.03855-77.04047176°201km/h989m0.4m/s-46.2°C0.9%17.0hPa0V00:00:0000:00:0000:00:00
SQ9EZE-132026-09-03 12:42:24-12.03130-77.04536119°199km/h1003m-1.9m/s-46.2°C0.9%17.3hPa0V00:00:0000:00:0000:00:00
SP9KGR-152026-09-03 12:42:24-12.03130-77.04536119°199km/h1003m-1.9m/s-46.2°C0.9%17.3hPa0V00:00:0000:00:0000:00:00
HA6NAB-112026-09-03 12:42:21-12.03073-77.04677109°199km/h999m-1.5m/s-46.2°C0.9%17.3hPa0V00:00:0000:00:0000:00:00
HA6NAB-112026-09-03 12:42:10-12.03072-77.0523074°199km/h992m-0.9m/s-46.2°C0.9%17.5hPa0V00:00:0000:00:0000:00:00
SQ9EZE-132026-09-03 12:42:09-12.03088-77.0527970°203km/h992m1.6m/s-46.2°C0.9%17.5hPa0V00:00:0000:00:0000:00:00
SP9KGR-152026-09-03 12:42:09-12.03088-77.0527970°203km/h992m1.6m/s-46.2°C0.9%17.5hPa0V00:00:0000:00:0000:00:00
HA6NAB-112026-09-03 12:42:05-12.03180-77.0546258°199km/h990m0.2m/s-46.2°C0.9%17.6hPa0V00:00:0000:00:0000:00:00
HA6NAB-112026-09-03 12:42:00-12.03347-77.0565541°197km/h990m-0.1m/s-46.3°C0.9%17.6hPa0V00:00:0000:00:0000:00:00
HA6NAB-112026-09-03 12:41:55-12.03559-77.0579326°199km/h990m-0.1m/s-46.2°C0.9%17.7hPa0V00:00:0000:00:0000:00:00
SQ9EZE-132026-09-03 12:41:53-12.03653-77.0583019°199km/h989m0.0m/s-46.3°C0.9%17.7hPa0V00:00:0000:00:0000:00:00
SP9KGR-152026-09-03 12:41:52-12.03702-77.0584416°199km/h989m0.0m/s-46.3°C0.9%17.8hPa0V00:00:0000:00:0000:00:00
SP9SOS2026-09-03 12:41:51-12.03751-77.0585613°199km/h988m-0.0m/s-46.2°C0.9%17.8hPa0V00:00:0000:00:0000:00:00
HA6NAB-112026-09-03 12:41:50-12.03801-77.05865199km/h988m-1.7m/s-46.3°C0.9%17.8hPa0V00:00:0000:00:0000:00:00
GYPAP8-172026-09-03 12:41:48-12.03902-77.05875199km/h989m0.1m/s-46.3°C0.9%17.8hPa0V00:00:0000:00:0000:00:00
HA6NAB-112026-09-03 12:41:44-12.04103-77.05859350°199km/h989m0.0m/s-46.3°C0.9%17.9hPa0V00:00:0000:00:0000:00:00
SP9SOS2026-09-03 12:41:25-12.04793-77.05245289°199km/h992m-0.5m/s-46.5°C0.9%18.2hPa0V00:00:0000:00:0000:00:00
SP9KGR-152026-09-03 12:41:20-12.04839-77.04990273°199km/h995m-0.1m/s-46.5°C0.9%18.3hPa0V00:00:0000:00:0000:00:00
SQ9EZE-132026-09-03 12:41:17-12.04832-77.04837264°199km/h993m0.1m/s-46.4°C0.9%18.3hPa0V00:00:0000:00:0000:00:00
SP9KGR-152026-09-03 12:41:04-12.04525-77.04263222°199km/h991m0.1m/s-46.3°C0.9%18.5hPa0V00:00:0000:00:0000:00:00
SQ9EZE-132026-09-03 12:41:02-12.04445-77.04201215°199km/h992m0.1m/s-46.3°C0.9%18.5hPa0V00:00:0000:00:0000:00:00
SP9SOS2026-09-03 12:41:00-12.04356-77.04150209°199km/h993m0.1m/s-46.3°C0.9%18.6hPa0V00:00:0000:00:0000:00:00
SQ9EZE-132026-09-03 12:39:44-14.47061-83.546020km/h1325m0.0m/s-47.5°C0.9%19.8hPa0V00:00:0000:00:0000:00:00
SP9SOS2026-09-03 12:39:43-14.47061-83.546020km/h1325m0.0m/s-47.4°C1.0%19.8hPa0V00:00:0000:00:0000:00:00
SP9KGR-152026-09-03 12:39:42-14.47061-83.546020km/h1325m0.0m/s-47.5°C0.9%19.9hPa0V00:00:0000:00:0000:00:00
GYPAP8-172026-09-03 12:39:40-14.47061-83.54602286°197km/h1325m5.5m/s-47.6°C1.0%19.9hPa0V00:00:0000:00:0000:00:00
SP9KGR-152026-09-03 12:39:2648.7344421.014290km/h26650m0.0m/s-47.7°C1.0%20.1hPa0V00:00:0000:00:0000:00:00
SQ9EZE-132026-09-03 12:39:2448.7344421.014290km/h26650m0.0m/s-47.6°C0.9%20.1hPa0V00:00:0000:00:0000:00:00
SP9SOS2026-09-03 12:39:1748.7344421.014290km/h26650m0.0m/s-47.5°C0.9%20.3hPa0V00:00:0000:00:0000:00:00
SP9KGR-152026-09-03 12:39:1148.7344421.014290km/h26650m0.0m/s-47.4°C0.9%20.4hPa0V00:00:0000:00:0000:00:00
SQ9EZE-132026-09-03 12:39:0048.7345921.01418335°7km/h26665m1.7m/s-47.5°C1.0%20.6hPa0V00:00:0000:00:0000:00:00
SP9KGR-152026-09-03 12:38:5548.7346221.014150km/h26668m0.0m/s-47.5°C1.0%20.7hPa0V00:00:0000:00:0000:00:00
SP9SOS2026-09-03 12:38:5248.7345621.01420335°7km/h26662m1.7m/s-47.5°C1.0%20.7hPa0V00:00:0000:00:0000:00:00
HA6NAB-112026-09-03 12:38:4048.7343821.01390108°22km/h26634m2.5m/s-47.5°C1.0%20.9hPa0V00:00:0000:00:0000:00:00
SP9KGR-152026-09-03 12:38:3948.7344021.01384130°20km/h26631m1.7m/s-47.4°C1.0%20.9hPa0V00:00:0000:00:0000:00:00
HA6NAB-112026-09-03 12:38:3448.7344721.01349113°26km/h26612m5.6m/s-47.5°C1.0%21.0hPa0V00:00:0000:00:0000:00:00
LZ4TU-52026-09-03 12:38:3048.7346021.01311121°29km/h26593m5.8m/s0°C0%0hPa0V00:00:0000:00:0000:00:00
SQ9EZE-142026-09-03 12:38:2948.7346221.01303117°20km/h26586m6.3m/s-47.5°C1.0%21.1hPa0V00:00:0000:00:0000:00:00
HA6NAB-112026-09-03 12:38:2848.7346521.01296120°20km/h26581m5.3m/s-47.5°C1.0%21.1hPa0V00:00:0000:00:0000:00:00
LZ4TU-52026-09-03 12:38:2648.7346921.01282118°22km/h26570m5.9m/s0°C0%0hPa0V00:00:0000:00:0000:00:00
SP9SOS2026-09-03 12:38:2548.7347221.01274117°24km/h26564m5.3m/s-47.6°C1.0%21.2hPa0V00:00:0000:00:0000:00:00
SQ9EZE-132026-09-03 12:38:2448.7347521.01266117°26km/h26559m4.2m/s-47.6°C1.0%21.2hPa0V00:00:0000:00:0000:00:00
SP9KGR-152026-09-03 12:38:2348.7347721.01257115°24km/h26555m4.9m/s-47.6°C1.0%21.2hPa0V00:00:0000:00:0000:00:00
HA6NAB-112026-09-03 12:38:2248.7348021.01249113°22km/h26549m6.7m/s-47.6°C1.0%21.2hPa0V00:00:0000:00:0000:00:00
HA6NAB-112026-09-03 12:38:1648.7349421.01199118°33km/h26517m5.0m/s-47.7°C1.0%21.3hPa0V00:00:0000:00:0000:00:00
SQ9EZE-142026-09-03 12:38:1348.7350421.01168110°24km/h26502m5.3m/s-47.7°C1.0%21.4hPa0V00:00:0000:00:0000:00:00
HA6NAB-112026-09-03 12:38:1148.7350721.01152106°18km/h26492m4.9m/s-47.8°C1.0%21.4hPa0V00:00:0000:00:0000:00:00
OE5DRO-102026-09-03 12:38:1048.7350921.01139109°24km/h26481m4.9m/s0°C0%0hPa0V00:00:0000:00:0000:00:00
SP9KGR-152026-09-03 12:38:0748.7351221.01127114°15km/h26472m4.7m/s-47.8°C1.0%21.5hPa0V00:00:0000:00:0000:00:00
HA6NAB-112026-09-03 12:38:0448.7351621.01114109°13km/h26456m4.2m/s-47.9°C1.0%21.5hPa0V00:00:0000:00:0000:00:00
SP9SOS2026-09-03 12:38:0048.7352421.01084112°27km/h26436m4.0m/s-47.8°C1.0%21.6hPa0V00:00:0000:00:0000:00:00
SQ9EZE-132026-09-03 12:37:5248.7352921.0101298°24km/h26394m4.9m/s-47.8°C1.0%21.7hPa0V00:00:0000:00:0000:00:00
SP9KGR-152026-09-03 12:37:5148.7352921.0100399°22km/h26388m6.0m/s-47.8°C1.0%21.8hPa0V00:00:0000:00:0000:00:00
OE5DRO-102026-09-03 12:37:3448.7353021.0083090°15km/h26295m4.5m/s0°C0%0hPa0V00:00:0000:00:0000:00:00
SQ9EZE-132026-09-03 12:37:2948.7353321.0078498°31km/h26275m4.2m/s-47.7°C1.0%22.1hPa0V00:00:0000:00:0000:00:00
GYPAP8-172026-09-03 12:37:2548.7352721.0074558°27km/h26255m4.8m/s-47.7°C0.9%22.2hPa0V00:00:0000:00:0000:00:00
SP9KGR-152026-09-03 12:37:1848.7350321.0068368°22km/h26218m4.4m/s-48.0°C1.0%22.3hPa0V00:00:0000:00:0000:00:00
SQ9EZE-132026-09-03 12:37:1248.7349321.0061764°38km/h26188m6.1m/s-48.5°C1.0%22.4hPa0V00:00:0000:00:0000:00:00
SP9SOS2026-09-03 12:37:0948.7347521.0058343°37km/h26172m5.5m/s-48.4°C1.0%22.5hPa0V00:00:0000:00:0000:00:00
SP9KGR-152026-09-03 12:37:0348.7344321.0054436°20km/h26140m5.0m/s-48.1°C1.0%22.6hPa0V00:00:0000:00:0000:00:00
SQ9EZE-132026-09-03 12:36:5748.7342221.0049953°31km/h26109m5.8m/s-48.2°C1.0%22.7hPa0V00:00:0000:00:0000:00:00
SP9KGR-152026-09-03 12:36:4748.7338121.0044660°16km/h26056m4.8m/s-48.0°C1.0%22.9hPa0V00:00:0000:00:0000:00:00
SP9SOS2026-09-03 12:36:4348.7337221.0041957°22km/h26035m4.4m/s-48.1°C1.0%23.0hPa0V00:00:0000:00:0000:00:00
SQ9EZE-132026-09-03 12:36:4048.7335821.0040321°26km/h26019m4.7m/s-48.2°C1.0%23.0hPa0V00:00:0000:00:0000:00:00
SP9KGR-152026-09-03 12:36:3148.7333421.0036768°20km/h25973m4.5m/s-48.0°C1.0%23.2hPa0V00:00:0000:00:0000:00:00
SQ9EZE-132026-09-03 12:36:2348.7330821.0031422°13km/h25932m4.7m/s-47.8°C1.0%23.3hPa0V00:00:0000:00:0000:00:00
GYPAP8-172026-09-03 12:36:2148.7330621.00311100°4km/h25921m5.5m/s-47.9°C1.0%23.4hPa0V00:00:0000:00:0000:00:00
SP9KGR-152026-09-03 12:36:1648.7330921.0029494°16km/h25894m5.4m/s-47.8°C1.0%23.4hPa0V00:00:0000:00:0000:00:00
SP9SOS2026-09-03 12:36:1448.7330821.0028081°18km/h25883m4.2m/s-47.7°C1.0%23.5hPa0V00:00:0000:00:0000:00:00
SQ9EZE-132026-09-03 12:36:0748.7329321.00280264°7km/h25849m5.0m/s-47.6°C1.0%23.6hPa0V00:00:0000:00:0000:00:00
SQ9EZE-142026-09-03 12:36:0548.7329421.00278117°11km/h25840m4.7m/s-47.5°C0.9%23.6hPa0V00:00:0000:00:0000:00:00
SQ9EZE-132026-09-03 12:35:5148.7327421.0021081°9km/h25766m5.7m/s-48.2°C1.0%23.9hPa0V00:00:0000:00:0000:00:00
SQ9EZE-142026-09-03 12:35:4948.7327321.0020181°15km/h25756m5.1m/s-48.3°C1.0%24.0hPa0V00:00:0000:00:0000:00:00
SP9SOS2026-09-03 12:35:4848.7327221.0019570°16km/h25750m6.4m/s-48.3°C1.0%24.0hPa0V00:00:0000:00:0000:00:00
SP9KGR-152026-09-03 12:35:4548.7326421.0017558°22km/h25734m5.0m/s-48.3°C1.0%24.0hPa0V00:00:0000:00:0000:00:00
SQ9EZE-132026-09-03 12:35:3348.7324921.0011067°16km/h25668m5.9m/s-48.5°C1.0%24.3hPa0V00:00:0000:00:0000:00:00
SP9KGR-152026-09-03 12:35:2548.7323021.0006738°16km/h25625m6.6m/s-48.6°C1.0%24.4hPa0V00:00:0000:00:0000:00:00
SP9SOS2026-09-03 12:35:2348.7322321.0006036°16km/h25614m4.8m/s-48.5°C1.0%24.5hPa0V00:00:0000:00:0000:00:00
GYPAP8-172026-09-03 12:35:1848.7320721.0003543°24km/h25589m6.5m/s-48.4°C1.0%24.6hPa0V00:00:0000:00:0000:00:00
HA6NAB-112026-09-03 12:35:1548.7318921.0000759°26km/h25567m6.2m/s-48.4°C1.0%24.6hPa0V00:00:0000:00:0000:00:00
HA6NAB-112026-09-03 12:35:0948.7317720.9996951°16km/h25539m5.7m/s-48.4°C1.0%24.8hPa0V00:00:0000:00:0000:00:00
SP9KGR-152026-09-03 12:35:0548.7316920.9995362°13km/h25517m4.2m/s-48.5°C1.0%24.8hPa0V00:00:0000:00:0000:00:00
SQ9EZE-132026-09-03 12:35:0348.7316420.9994353°18km/h25506m7.0m/s-48.6°C1.0%24.9hPa0V00:00:0000:00:0000:00:00
SP9SOS2026-09-03 12:34:5848.7315220.9990368°18km/h25474m4.7m/s-48.3°C1.0%25.0hPa0V00:00:0000:00:0000:00:00
HA6NAB-112026-09-03 12:34:5248.7313220.9987926°18km/h25446m6.0m/s-48.4°C1.0%25.1hPa0V00:00:0000:00:0000:00:00
SP9KGR-152026-09-03 12:34:4948.7311920.9987027°20km/h25429m6.4m/s-48.5°C1.0%25.2hPa0V00:00:0000:00:0000:00:00
SQ9EZE-132026-09-03 12:34:4748.7311220.9986241°16km/h25418m4.5m/s-48.6°C1.0%25.2hPa0V00:00:0000:00:0000:00:00
HA6NAB-112026-09-03 12:34:4648.7310920.9985854°15km/h25413m6.1m/s-48.5°C1.0%25.2hPa0V00:00:0000:00:0000:00:00
SP9KGR-152026-09-03 12:34:3448.7307620.9982430°24km/h25350m5.8m/s-48.7°C1.0%25.5hPa0V00:00:0000:00:0000:00:00
SQ9EZE-132026-09-03 12:34:3148.7305720.9980731°31km/h25333m4.1m/s-48.7°C1.0%25.5hPa0V00:00:0000:00:0000:00:00
SP9SOS2026-09-03 12:34:3048.7305120.9980228°27km/h25329m5.4m/s-48.8°C1.0%25.6hPa0V00:00:0000:00:0000:00:00
SP9KGR-152026-09-03 12:34:1848.7298920.9979730°24km/h25265m6.0m/s-48.7°C1.0%25.8hPa0V00:00:0000:00:0000:00:00
GYPAP8-172026-09-03 12:34:1648.7297820.9978833°26km/h25255m4.2m/s-48.8°C1.0%25.8hPa0V00:00:0000:00:0000:00:00
SQ9EZE-132026-09-03 12:34:1548.7297320.9978332°22km/h25251m4.6m/s-48.9°C1.0%25.9hPa0V00:00:0000:00:0000:00:00
SP9SOS2026-09-03 12:34:0448.7293320.9977160°15km/h25194m4.6m/s-48.9°C1.0%26.1hPa0V00:00:0000:00:0000:00:00
SP9KGR-152026-09-03 12:34:0348.7293120.9976662°16km/h25189m4.8m/s-49.0°C1.0%26.1hPa0V00:00:0000:00:0000:00:00
SQ9EZE-132026-09-03 12:34:0048.7292320.9975045°16km/h25174m4.0m/s-49.1°C1.0%26.2hPa0V00:00:0000:00:0000:00:00
SQ9EZE-142026-09-03 12:33:4848.7290720.9973484°11km/h25111m6.2m/s-49.3°C1.0%26.4hPa0V00:00:0000:00:0000:00:00
SP9KGR-152026-09-03 12:33:4748.7290720.9973081°11km/h25105m5.2m/s-49.4°C1.0%26.5hPa0V00:00:0000:00:0000:00:00
SQ9EZE-132026-09-03 12:33:4448.7290820.99718130°9km/h25090m5.8m/s-49.4°C1.0%26.5hPa0V00:00:0000:00:0000:00:00
SQ9EZE-142026-09-03 12:33:3248.7292620.9970292°20km/h25027m4.8m/s-49.7°C1.1%26.8hPa0V00:00:0000:00:0000:00:00
SP9KGR-152026-09-03 12:33:3148.7292620.9969494°20km/h25022m4.4m/s-49.8°C1.0%26.8hPa0V00:00:0000:00:0000:00:00
OE5DRO-102026-09-03 12:33:2048.7293620.9965984°11km/h24962m5.6m/s0°C0%0hPa0V00:00:0000:00:0000:00:00
SQ9EZE-142026-09-03 12:33:1648.7293120.9964655°16km/h24946m3.9m/s-49.7°C1.0%27.1hPa0V00:00:0000:00:0000:00:00
GYPAP8-172026-09-03 12:33:1248.7292720.9963276°7km/h24928m3.8m/s-49.8°C1.0%27.2hPa0V00:00:0000:00:0000:00:00
OE5DRO-102026-09-03 12:33:0148.7289520.9960931°15km/h24869m4.1m/s0°C0%0hPa0V00:00:0000:00:0000:00:00
SP9KGR-152026-09-03 12:33:0048.7289520.9960931°16km/h24869m4.2m/s-50.9°C1.1%27.4hPa0V00:00:0000:00:0000:00:00
SQ9EZE-142026-09-03 12:32:5948.7289120.9960636°15km/h24864m5.7m/s-51.1°C1.1%27.5hPa0V00:00:0000:00:0000:00:00
SQ9EZE-142026-09-03 12:32:4448.7282320.99604334°22km/h24789m5.7m/s-51.4°C1.1%27.8hPa0V00:00:0000:00:0000:00:00
SP9KGR-152026-09-03 12:32:3048.7276220.99657316°24km/h24713m5.3m/s-51.2°C1.1%28.1hPa0V00:00:0000:00:0000:00:00
SQ9EZE-142026-09-03 12:32:2948.7276220.99657316°24km/h24713m5.3m/s-51.2°C1.1%28.1hPa0V00:00:0000:00:0000:00:00
SQ9EZE-132026-09-03 12:32:2148.7272920.99694304°13km/h24672m4.6m/s-51.1°C1.1%28.3hPa0V00:00:0000:00:0000:00:00
SP9KGR-152026-09-03 12:32:1348.7271020.99741304°20km/h24631m4.9m/s-51.1°C1.1%28.5hPa0V00:00:0000:00:0000:00:00
SP9SOS2026-09-03 12:32:1048.7270120.99754326°13km/h24615m4.8m/s-51.2°C1.1%28.5hPa0V00:00:0000:00:0000:00:00
SQ9EZE-142026-09-03 12:31:5848.7268520.99822285°18km/h24550m4.8m/s-51.7°C1.2%28.8hPa0V00:00:0000:00:0000:00:00
SP9KGR-152026-09-03 12:31:5748.7268420.99828280°15km/h24545m4.7m/s-51.7°C1.2%28.9hPa0V00:00:0000:00:0000:00:00
SQ9EZE-132026-09-03 12:31:4748.7269520.99879246°27km/h24494m5.0m/s-51.6°C1.2%29.1hPa0V00:00:0000:00:0000:00:00
SP9KGR-152026-09-03 12:31:4348.7270920.99912215°7km/h24470m5.2m/s-51.5°C1.2%29.2hPa0V00:00:0000:00:0000:00:00
SQ9EZE-132026-09-03 12:31:3248.7273020.99957233°27km/h24414m4.5m/s-51.3°C1.1%29.4hPa0V00:00:0000:00:0000:00:00
SP9KGR-152026-09-03 12:31:2648.7275220.99977174°15km/h24389m4.7m/s-51.3°C1.2%29.5hPa0V00:00:0000:00:0000:00:00
SQ9EZE-132026-09-03 12:31:1648.7278720.99995219°18km/h24337m5.1m/s-51.3°C1.1%29.8hPa0V00:00:0000:00:0000:00:00
SP9KGR-152026-09-03 12:31:1048.7281921.00006161°22km/h24304m5.6m/s-51.1°C1.2%30.0hPa0V00:00:0000:00:0000:00:00
GYPAP8-172026-09-03 12:31:0648.7283920.99986145°24km/h24281m4.9m/s-51.0°C1.2%30.1hPa0V00:00:0000:00:0000:00:00
SQ9EZE-132026-09-03 12:31:0048.7285720.99980199°16km/h24248m6.6m/s-51.1°C1.1%30.2hPa0V00:00:0000:00:0000:00:00
SP9KGR-152026-09-03 12:30:5548.7288320.99972137°26km/h24221m5.5m/s-50.8°C1.2%30.3hPa0V00:00:0000:00:0000:00:00
SQ9EZE-132026-09-03 12:30:4448.7291320.99907171°16km/h24160m4.5m/s-50.6°C1.2%30.6hPa0V00:00:0000:00:0000:00:00
SP9KGR-152026-09-03 12:30:3948.7293120.99877118°31km/h24132m6.7m/s-50.5°C1.1%30.8hPa0V00:00:0000:00:0000:00:00
SQ9EZE-132026-09-03 12:30:2548.7296320.99780106°31km/h24051m6.1m/s-50.1°C1.1%31.2hPa0V00:00:0000:00:0000:00:00
SP9KGR-152026-09-03 12:30:2448.7296320.99780106°31km/h24051m6.1m/s-50.1°C1.1%31.2hPa0V00:00:0000:00:0000:00:00
SP9KGR-152026-09-03 12:30:0948.7298420.9970190°24km/h23974m5.0m/s-50.4°C1.1%31.5hPa0V00:00:0000:00:0000:00:00
SQ9EZE-132026-09-03 12:30:0848.7298420.9968598°16km/h23964m4.6m/s-50.4°C1.1%31.6hPa0V00:00:0000:00:0000:00:00
SP9KGR-152026-09-03 12:29:5348.7297920.9963380°9km/h23892m5.4m/s-50.7°C1.1%31.9hPa0V00:00:0000:00:0000:00:00
SQ9EZE-132026-09-03 12:29:5248.7297920.9963079°9km/h23887m4.7m/s-50.7°C1.1%31.9hPa0V00:00:0000:00:0000:00:00
SQ9EZE-142026-09-03 12:29:3848.7296020.9960169°15km/h23814m4.4m/s-50.9°C1.1%32.3hPa0V00:00:0000:00:0000:00:00
SP9KGR-152026-09-03 12:29:3748.7295820.9959560°15km/h23810m4.5m/s-51.0°C1.1%32.3hPa0V00:00:0000:00:0000:00:00
SQ9EZE-132026-09-03 12:29:3648.7295620.9959148°16km/h23805m5.9m/s-51.1°C1.1%32.3hPa0V00:00:0000:00:0000:00:00
SQ9EZE-142026-09-03 12:29:2348.7293220.9957613°18km/h23732m6.3m/s-52.0°C1.2%32.7hPa0V00:00:0000:00:0000:00:00
SP9KGR-152026-09-03 12:29:2248.7293220.9957613°18km/h23732m6.3m/s-52.0°C1.2%32.7hPa0V00:00:0000:00:0000:00:00
SQ9EZE-132026-09-03 12:29:2148.7292320.99576352°20km/h23722m4.0m/s-52.1°C1.2%32.8hPa0V00:00:0000:00:0000:00:00
GYPAP8-172026-09-03 12:29:0948.7292320.9958394°5km/h23668m4.4m/s-51.6°C1.2%33.0hPa0V00:00:0000:00:0000:00:00
SP9KGR-152026-09-03 12:29:0548.7291320.99582338°16km/h23648m4.6m/s-51.5°C1.1%33.2hPa0V00:00:0000:00:0000:00:00
SQ9EZE-132026-09-03 12:29:0448.7290820.99588296°7km/h23638m4.2m/s-51.6°C1.2%33.2hPa0V00:00:0000:00:0000:00:00
SP9KGR-152026-09-03 12:28:5048.7291220.99565359°13km/h23575m4.7m/s-51.6°C1.2%33.5hPa0V00:00:0000:00:0000:00:00
SQ9EZE-132026-09-03 12:28:4748.7290620.995660km/h23561m3.9m/s-51.5°C1.2%33.6hPa0V00:00:0000:00:0000:00:00
SP9KGR-152026-09-03 12:28:3548.7290020.99551347°16km/h23498m5.0m/s-51.8°C1.2%33.9hPa0V00:00:0000:00:0000:00:00
SQ9EZE-132026-09-03 12:28:3148.7289020.995549km/h23484m6.0m/s-51.8°C1.2%34.0hPa0V00:00:0000:00:0000:00:00
SP9KGR-152026-09-03 12:28:1848.7284720.99560332°18km/h23420m4.3m/s-51.5°C1.2%34.3hPa0V00:00:0000:00:0000:00:00
SQ9EZE-132026-09-03 12:28:1548.7284020.9956518°2km/h23404m4.5m/s-51.4°C1.2%34.4hPa0V00:00:0000:00:0000:00:00
GYPAP8-172026-09-03 12:28:0848.7282320.99567358°29km/h23368m4.2m/s-51.7°C1.2%34.6hPa0V00:00:0000:00:0000:00:00
SP9KGR-152026-09-03 12:28:0248.7279520.99582219°4km/h23342m6.1m/s-51.6°C1.2%34.8hPa0V00:00:0000:00:0000:00:00
SQ9EZE-132026-09-03 12:28:0148.7279920.99580150°11km/h23331m4.4m/s-51.5°C1.2%34.8hPa0V00:00:0000:00:0000:00:00
SP9KGR-152026-09-03 12:27:4748.7277920.99577277°4km/h23268m4.4m/s-51.5°C1.2%35.2hPa0V00:00:0000:00:0000:00:00
SQ9EZE-132026-09-03 12:27:4548.7278020.995770km/h23257m5.4m/s-51.6°C1.2%35.2hPa0V00:00:0000:00:0000:00:00
SP9KGR-152026-09-03 12:27:3248.7276420.99567214°9km/h23186m4.8m/s-51.8°C1.2%35.6hPa0V00:00:0000:00:0000:00:00
SQ9EZE-132026-09-03 12:27:2748.7277120.99566133°11km/h23165m5.1m/s-51.7°C1.2%35.7hPa0V00:00:0000:00:0000:00:00
SP9KGR-152026-09-03 12:27:1548.7279520.99524141°5km/h23104m5.6m/s-51.5°C1.2%36.1hPa0V00:00:0000:00:0000:00:00
SQ9EZE-132026-09-03 12:27:1148.7280020.99518108°4km/h23086m4.4m/s-51.5°C1.2%36.2hPa0V00:00:0000:00:0000:00:00
SQ9EZE-142026-09-03 12:27:0448.7279720.9949697°13km/h23048m4.6m/s-51.5°C1.2%36.4hPa0V00:00:0000:00:0000:00:00
SP9KGR-152026-09-03 12:27:0048.7279920.99484129°4km/h23027m6.0m/s-51.4°C1.2%36.5hPa0V00:00:0000:00:0000:00:00
SQ9EZE-142026-09-03 12:26:4948.7278720.9948082°18km/h22971m5.4m/s-51.2°C1.2%36.8hPa0V00:00:0000:00:0000:00:00
SP9KGR-152026-09-03 12:26:4548.7278920.99458140°9km/h22951m5.0m/s-51.2°C1.2%36.9hPa0V00:00:0000:00:0000:00:00
SQ9EZE-142026-09-03 12:26:3448.7278320.99434101°11km/h22888m4.9m/s-51.0°C1.1%37.3hPa0V00:00:0000:00:0000:00:00
SP9KGR-152026-09-03 12:26:2948.7278720.99425146°7km/h22868m4.8m/s-51.0°C1.1%37.4hPa0V00:00:0000:00:0000:00:00
SQ9EZE-142026-09-03 12:26:1748.7279520.99374137°15km/h22805m5.5m/s-51.4°C1.2%37.8hPa0V00:00:0000:00:0000:00:00
SP9KGR-152026-09-03 12:26:1448.7280620.99363150°20km/h22789m4.8m/s-51.5°C1.2%37.9hPa0V00:00:0000:00:0000:00:00
SQ9EZE-132026-09-03 12:26:0248.7282120.99306162°9km/h22719m5.2m/s-51.4°C1.2%38.3hPa0V00:00:0000:00:0000:00:00
GYPAP8-172026-09-03 12:25:5948.7282720.99303165°15km/h22709m5.0m/s-51.4°C1.2%38.3hPa0V00:00:0000:00:0000:00:00
SP9KGR-152026-09-03 12:25:5848.7283020.99302154°13km/h22704m4.6m/s-51.3°C1.2%38.4hPa0V00:00:0000:00:0000:00:00
SQ9EZE-142026-09-03 12:25:4648.7282120.99255117°7km/h22642m5.2m/s-51.4°C1.2%38.7hPa0V00:00:0000:00:0000:00:00
SP9KGR-152026-09-03 12:25:4248.7282420.9924488°11km/h22623m5.6m/s-51.3°C1.2%38.9hPa0V00:00:0000:00:0000:00:00
SQ9EZE-132026-09-03 12:25:4148.7282420.9923971°13km/h22617m5.2m/s-51.2°C1.2%38.9hPa0V00:00:0000:00:0000:00:00
SQ9EZE-142026-09-03 12:25:3148.7280120.9920822°5km/h22569m4.5m/s-51.2°C1.2%39.2hPa0V00:00:0000:00:0000:00:00
SP9KGR-152026-09-03 12:25:2748.7279420.992097km/h22549m5.3m/s-51.1°C1.2%39.3hPa0V00:00:0000:00:0000:00:00
SQ9EZE-132026-09-03 12:25:2448.7278920.9920726°5km/h22534m5.1m/s-51.3°C1.2%39.4hPa0V00:00:0000:00:0000:00:00
SP9KGR-152026-09-03 12:25:1248.7276220.99218329°9km/h22470m4.9m/s-51.6°C1.2%39.8hPa0V00:00:0000:00:0000:00:00
SQ9EZE-132026-09-03 12:25:0848.7275520.99223339°9km/h22457m4.5m/s-51.6°C1.2%39.9hPa0V00:00:0000:00:0000:00:00
GYPAP8-172026-09-03 12:24:5848.7275220.99230326°5km/h22409m5.5m/s-51.5°C1.2%40.2hPa0V00:00:0000:00:0000:00:00
SP9KGR-152026-09-03 12:24:5648.7274920.99234313°11km/h22399m4.4m/s-51.3°C1.2%40.3hPa0V00:00:0000:00:0000:00:00
SQ9EZE-132026-09-03 12:24:5148.7274720.99251223°13km/h22375m4.7m/s-51.2°C1.2%40.4hPa0V00:00:0000:00:0000:00:00
SP9KGR-152026-09-03 12:24:4148.7275420.99271273°13km/h22330m4.6m/s-51.3°C1.2%40.6hPa0V00:00:0000:00:0000:00:00
SQ9EZE-132026-09-03 12:24:2948.7277920.99321274°11km/h22277m5.1m/s-51.6°C1.2%41.0hPa0V00:00:0000:00:0000:00:00
SP9KGR-152026-09-03 12:24:2548.7277520.99341291°13km/h22259m4.5m/s-51.7°C1.2%41.1hPa0V00:00:0000:00:0000:00:00
SP9KGR-152026-09-03 12:24:1048.7278920.99391198°2km/h22194m4.7m/s-52.3°C1.2%41.5hPa0V00:00:0000:00:0000:00:00
GYPAP8-172026-09-03 12:23:5648.7282720.99376115°15km/h22129m4.7m/s-52.8°C1.2%41.9hPa0V00:00:0000:00:0000:00:00
SP9KGR-152026-09-03 12:23:5448.7283120.99368131°11km/h22121m3.7m/s-52.8°C1.2%42.0hPa0V00:00:0000:00:0000:00:00
SP9KGR-152026-09-03 12:23:3948.7287120.99330193°5km/h22050m4.4m/s-52.9°C1.2%42.4hPa0V00:00:0000:00:0000:00:00
SQ9EZE-132026-09-03 12:23:3348.7288520.99331169°16km/h22028m4.4m/s-53.0°C1.3%42.6hPa0V00:00:0000:00:0000:00:00
SP9KGR-152026-09-03 12:23:2248.7290820.99289151°13km/h21977m4.5m/s-53.8°C1.3%42.9hPa0V00:00:0000:00:0000:00:00
SP9KGR-152026-09-03 12:23:0748.7295520.99222107°9km/h21907m5.0m/s-53.7°C1.3%43.4hPa0V00:00:0000:00:0000:00:00
GYPAP8-172026-09-03 12:22:5348.7297020.9917866°13km/h21839m4.4m/s-53.8°C1.3%43.9hPa0V00:00:0000:00:0000:00:00
SP9KGR-152026-09-03 12:22:5148.7296920.9917383°13km/h21834m4.7m/s-53.9°C1.3%43.9hPa0V00:00:0000:00:0000:00:00
SQ9EZE-132026-09-03 12:22:4948.7297120.99159113°13km/h21820m4.2m/s-54.0°C1.3%44.0hPa0V00:00:0000:00:0000:00:00
SQ9EZE-142026-09-03 12:22:4648.7297420.99147110°9km/h21806m3.5m/s-54.2°C1.4%44.1hPa0V00:00:0000:00:0000:00:00
SP9KGR-152026-09-03 12:22:3648.7296620.99139327°9km/h21764m4.6m/s-54.4°C1.4%44.4hPa0V00:00:0000:00:0000:00:00
SP9SOS2026-09-03 12:22:3448.7296320.991424km/h21755m4.0m/s-54.4°C1.4%44.5hPa0V00:00:0000:00:0000:00:00
SQ9EZE-132026-09-03 12:22:3248.7296320.99139108°9km/h21745m5.3m/s-54.4°C1.4%44.5hPa0V00:00:0000:00:0000:00:00
SQ9EZE-142026-09-03 12:22:3048.7296620.99130121°15km/h21736m5.1m/s-54.3°C1.3%44.6hPa0V00:00:0000:00:0000:00:00
SP9KGR-152026-09-03 12:22:2048.7296920.99121334°5km/h21690m4.7m/s-54.4°C1.4%44.9hPa0V00:00:0000:00:0000:00:00
SQ9EZE-132026-09-03 12:22:1748.7297120.99110130°16km/h21672m4.6m/s-54.7°C1.3%45.0hPa0V00:00:0000:00:0000:00:00
SQ9EZE-142026-09-03 12:22:1548.7297620.99102142°13km/h21662m4.9m/s-54.9°C1.4%45.1hPa0V00:00:0000:00:0000:00:00
SP9KGR-152026-09-03 12:22:0548.7297920.9908993°13km/h21616m5.6m/s-55.2°C1.4%45.4hPa0V00:00:0000:00:0000:00:00
SP9SOS2026-09-03 12:22:0248.7298120.99070105°18km/h21601m6.0m/s-55.3°C1.4%45.5hPa0V00:00:0000:00:0000:00:00
SQ9EZE-132026-09-03 12:21:5548.7298920.99036112°11km/h21571m6.1m/s-55.1°C1.5%45.8hPa0V00:00:0000:00:0000:00:00
GYPAP8-172026-09-03 12:21:4948.7298620.9901284°9km/h21538m4.8m/s-54.9°C1.4%46.0hPa0V00:00:0000:00:0000:00:00
SQ9EZE-132026-09-03 12:21:4048.7299520.98982131°13km/h21500m5.0m/s-54.7°C1.4%46.3hPa0V00:00:0000:00:0000:00:00
SP9SOS2026-09-03 12:21:3548.7300320.98960120°9km/h21476m4.4m/s-54.5°C1.4%46.4hPa0V00:00:0000:00:0000:00:00
SP9KGR-152026-09-03 12:21:3448.7300520.98953114°11km/h21468m4.9m/s-54.6°C1.4%46.5hPa0V00:00:0000:00:0000:00:00
SQ9EZE-132026-09-03 12:21:2448.7302120.98908128°20km/h21423m4.5m/s-54.5°C1.4%46.8hPa0V00:00:0000:00:0000:00:00
SP9KGR-152026-09-03 12:21:1948.7304320.98881150°24km/h21394m5.3m/s-54.4°C1.4%47.0hPa0V00:00:0000:00:0000:00:00
SP9SOS2026-09-03 12:21:0648.7309620.98813131°15km/h21338m4.2m/s-54.1°C1.3%47.5hPa0V00:00:0000:00:0000:00:00
SQ9EZE-132026-09-03 12:21:0548.7310120.98805139°18km/h21328m5.2m/s-54.1°C1.3%47.5hPa0V00:00:0000:00:0000:00:00
SP9KGR-152026-09-03 12:21:0248.7311020.98794143°26km/h21319m4.4m/s-54.1°C1.3%47.6hPa0V00:00:0000:00:0000:00:00
SQ9EZE-132026-09-03 12:20:4848.7314020.98689102°20km/h21252m5.3m/s-53.9°C1.4%48.1hPa0V00:00:0000:00:0000:00:00
SP9KGR-152026-09-03 12:20:4748.7314120.98682114°20km/h21247m5.8m/s-53.9°C1.4%48.1hPa0V00:00:0000:00:0000:00:00
SP9SOS2026-09-03 12:20:4148.7316320.98612108°27km/h21212m5.4m/s-53.7°C1.4%48.4hPa0V00:00:0000:00:0000:00:00
GYPAP8-172026-09-03 12:20:3448.7316620.98551100°26km/h21183m5.9m/s-53.6°C1.4%48.6hPa0V00:00:0000:00:0000:00:00
SP9KGR-152026-09-03 12:20:3248.7316920.98532104°27km/h21174m3.7m/s-53.5°C1.3%48.7hPa0V00:00:0000:00:0000:00:00
SP9KGR-152026-09-03 12:20:1648.7317420.9837276°22km/h21097m4.0m/s-53.1°C1.3%49.3hPa0V00:00:0000:00:0000:00:00
SP9SOS2026-09-03 12:20:1548.7317320.9836480°20km/h21093m5.1m/s-53.0°C1.4%49.3hPa0V00:00:0000:00:0000:00:00
SQ9EZE-132026-09-03 12:20:1448.7317320.9834999°22km/h21085m3.5m/s-53.0°C1.3%49.4hPa0V00:00:0000:00:0000:00:00
SP9KGR-152026-09-03 12:20:0048.7317520.9823668°26km/h21022m5.6m/s-52.8°C1.3%49.9hPa0V00:00:0000:00:0000:00:00
SP9SOS2026-09-03 12:19:4948.7316420.9813476°22km/h20969m4.8m/s-52.5°C1.3%50.3hPa0V00:00:0000:00:0000:00:00
SP9KGR-152026-09-03 12:19:4548.7315320.9809471°26km/h20946m4.8m/s-52.6°C1.3%50.5hPa0V00:00:0000:00:0000:00:00
SQ9EZE-142026-09-03 12:19:3748.7315420.98039125°16km/h20912m5.2m/s-52.7°C1.3%50.7hPa0V00:00:0000:00:0000:00:00
SP9KGR-152026-09-03 12:19:2948.7316420.9796590°29km/h20871m3.2m/s-53.0°C1.3%51.0hPa0V00:00:0000:00:0000:00:00
SP9SOS2026-09-03 12:19:2348.7316520.97927121°15km/h20847m4.8m/s-52.9°C1.3%51.2hPa0V00:00:0000:00:0000:00:00
SQ9EZE-142026-09-03 12:19:2148.7316920.97917114°16km/h20840m3.1m/s-52.9°C1.3%51.3hPa0V00:00:0000:00:0000:00:00
SP9KGR-152026-09-03 12:19:1248.7316720.97844100°11km/h20795m6.0m/s-53.1°C1.3%51.6hPa0V00:00:0000:00:0000:00:00
SQ9EZE-132026-09-03 12:19:1048.7317020.97838158°5km/h20781m5.2m/s-53.1°C1.4%51.8hPa0V00:00:0000:00:0000:00:00
SQ9EZE-142026-09-03 12:19:0548.7317120.9782576°18km/h20762m4.2m/s-53.3°C1.4%51.9hPa0V00:00:0000:00:0000:00:00
SP9KGR-152026-09-03 12:18:5748.7316620.97750118°13km/h20719m5.4m/s-53.1°C1.3%52.3hPa0V00:00:0000:00:0000:00:00
SQ9EZE-142026-09-03 12:18:5048.7317320.9772397°16km/h20687m5.4m/s-53.1°C1.3%52.5hPa0V00:00:0000:00:0000:00:00
SP9KGR-152026-09-03 12:18:4148.7318320.97661109°18km/h20649m4.6m/s-53.0°C1.3%52.8hPa0V00:00:0000:00:0000:00:00
SQ9EZE-142026-09-03 12:18:3348.7318820.97603100°24km/h20611m5.6m/s-53.2°C1.3%53.2hPa0V00:00:0000:00:0000:00:00
SP9SOS2026-09-03 12:18:3248.7318920.9759498°24km/h20606m5.2m/s-53.4°C1.3%53.2hPa0V00:00:0000:00:0000:00:00
GYPAP8-172026-09-03 12:18:2948.7319620.97562119°24km/h20588m4.4m/s-53.6°C1.4%53.4hPa0V00:00:0000:00:0000:00:00
SP9KGR-152026-09-03 12:18:2648.7320320.97536103°26km/h20574m4.8m/s-53.6°C1.4%53.5hPa0V00:00:0000:00:0000:00:00
SQ9EZE-142026-09-03 12:18:1848.7320620.9745492°20km/h20536m3.9m/s-53.8°C1.3%53.8hPa0V00:00:0000:00:0000:00:00
SP9KGR-152026-09-03 12:18:1048.7321020.9740378°24km/h20503m4.7m/s-53.6°C1.4%54.1hPa0V00:00:0000:00:0000:00:00
SP9SOS2026-09-03 12:18:0748.7320120.9736266°31km/h20484m5.2m/s-53.5°C1.4%54.2hPa0V00:00:0000:00:0000:00:00
SQ9EZE-132026-09-03 12:18:0448.7319120.9733165°27km/h20471m5.2m/s-53.6°C1.3%54.3hPa0V00:00:0000:00:0000:00:00
SP9KGR-152026-09-03 12:17:5448.7318420.9728569°18km/h20429m5.0m/s-53.5°C1.4%54.7hPa0V00:00:0000:00:0000:00:00
SP9SOS2026-09-03 12:17:4048.7313620.9718657°18km/h20367m4.6m/s-53.1°C1.4%55.2hPa0V00:00:0000:00:0000:00:00
SP9KGR-152026-09-03 12:17:3948.7313320.9718054°22km/h20362m5.0m/s-53.0°C1.4%55.3hPa0V00:00:0000:00:0000:00:00
SP9KGR-152026-09-03 12:17:2448.7308120.9710559°18km/h20287m4.6m/s-52.5°C1.3%55.9hPa0V00:00:0000:00:0000:00:00
GYPAP8-172026-09-03 12:17:2348.7308120.9710559°18km/h20287m4.6m/s-52.5°C1.3%55.9hPa0V00:00:0000:00:0000:00:00
SP9SOS2026-09-03 12:17:1548.7304820.9707918°11km/h20251m4.9m/s-52.2°C1.3%56.2hPa0V00:00:0000:00:0000:00:00
SQ9EZE-132026-09-03 12:17:1348.7304520.9707634°7km/h20242m4.4m/s-52.1°C1.3%56.3hPa0V00:00:0000:00:0000:00:00
SP9KGR-152026-09-03 12:17:0848.7303320.9706717°13km/h20219m4.8m/s-52.1°C1.3%56.5hPa0V00:00:0000:00:0000:00:00
SP9KGR-152026-09-03 12:16:5248.7299520.9703737°13km/h20145m4.8m/s-52.0°C1.2%57.2hPa0V00:00:0000:00:0000:00:00
SQ9EZE-132026-09-03 12:16:5148.7299320.9703452°13km/h20140m5.0m/s-52.0°C1.2%57.2hPa0V00:00:0000:00:0000:00:00
SP9SOS2026-09-03 12:16:5048.7299120.9703066°13km/h20136m4.3m/s-51.9°C1.2%57.2hPa0V00:00:0000:00:0000:00:00
SP9KGR-152026-09-03 12:16:3648.7298820.9699989°22km/h20067m4.4m/s-52.1°C1.3%57.9hPa0V00:00:0000:00:0000:00:00
SQ9EZE-132026-09-03 12:16:3548.7298720.9699186°20km/h20063m5.2m/s-52.1°C1.3%57.9hPa0V00:00:0000:00:0000:00:00
GYPAP8-172026-09-03 12:16:2148.7299820.96925103°16km/h19992m3.9m/s-52.0°C1.3%58.5hPa0V00:00:0000:00:0000:00:00
SQ9EZE-142026-09-03 12:16:1048.7301020.96887110°24km/h19944m4.1m/s-52.2°C1.3%59.0hPa0V00:00:0000:00:0000:00:00
SQ9EZE-132026-09-03 12:16:0748.7301420.9686095°22km/h19930m4.2m/s-52.3°C1.3%59.1hPa0V00:00:0000:00:0000:00:00
SP9KGR-152026-09-03 12:16:0648.7301520.96846105°16km/h19920m5.5m/s-52.3°C1.3%59.2hPa0V00:00:0000:00:0000:00:00
SP9SOS2026-09-03 12:15:5948.7302420.96810113°20km/h19884m6.5m/s-52.3°C1.3%59.5hPa0V00:00:0000:00:0000:00:00
SP9KGR-152026-09-03 12:15:5148.7303120.9673297°22km/h19843m4.4m/s-52.5°C1.3%59.9hPa0V00:00:0000:00:0000:00:00
SQ9EZE-132026-09-03 12:15:4848.7303120.9671688°18km/h19833m3.6m/s-52.6°C1.3%60.0hPa0V00:00:0000:00:0000:00:00
SP9KGR-152026-09-03 12:15:3448.7302920.9657471°27km/h19766m3.8m/s-52.5°C1.4%60.6hPa0V00:00:0000:00:0000:00:00
SP9SOS2026-09-03 12:15:3348.7302720.9656576°26km/h19762m5.0m/s-52.5°C1.4%60.6hPa0V00:00:0000:00:0000:00:00
SQ9EZE-132026-09-03 12:15:3148.7302520.9654790°24km/h19751m4.5m/s-52.5°C1.3%60.8hPa0V00:00:0000:00:0000:00:00
SP9KGR-152026-09-03 12:15:1948.7302120.9642894°13km/h19689m3.9m/s-52.0°C1.3%61.3hPa0V00:00:0000:00:0000:00:00
GYPAP8-172026-09-03 12:15:1748.7302120.9641885°15km/h19679m4.7m/s-52.0°C1.3%61.4hPa0V00:00:0000:00:0000:00:00
SP9SOS2026-09-03 12:15:0748.7302220.9635292°18km/h19636m5.3m/s-51.7°C1.3%61.9hPa0V00:00:0000:00:0000:00:00
SP9KGR-152026-09-03 12:15:0448.7302120.9633483°7km/h19617m4.1m/s-51.5°C1.2%62.0hPa0V00:00:0000:00:0000:00:00
SP9KGR-152026-09-03 12:14:4848.7304220.96258117°5km/h19545m4.8m/s-51.7°C1.3%62.7hPa0V00:00:0000:00:0000:00:00
SP9SOS2026-09-03 12:14:4248.7305320.96235127°24km/h19518m6.0m/s-51.7°C1.3%63.0hPa0V00:00:0000:00:0000:00:00
SP9KGR-152026-09-03 12:14:3348.7308620.96168138°18km/h19475m4.4m/s-51.6°C1.3%63.4hPa0V00:00:0000:00:0000:00:00
SQ9EZE-132026-09-03 12:14:1848.7312420.96027107°26km/h19403m4.2m/s-51.3°C1.2%64.1hPa0V00:00:0000:00:0000:00:00
SP9SOS2026-09-03 12:14:1748.7312620.96018104°26km/h19399m4.0m/s-51.4°C1.2%64.2hPa0V00:00:0000:00:0000:00:00
GYPAP8-172026-09-03 12:14:1448.7312920.95998100°27km/h19390m4.3m/s-51.3°C1.2%64.2hPa0V00:00:0000:00:0000:00:00
SQ9EZE-142026-09-03 12:14:0148.7314920.9584098°37km/h19327m5.0m/s-51.7°C1.3%64.9hPa0V00:00:0000:00:0000:00:00
SQ9EZE-132026-09-03 12:14:0048.7315020.9582698°38km/h19323m3.3m/s-51.8°C1.3%64.9hPa0V00:00:0000:00:0000:00:00
SP9SOS2026-09-03 12:13:5148.7314120.9571083°35km/h19283m3.7m/s-52.1°C1.3%65.3hPa0V00:00:0000:00:0000:00:00
SP9KGR-152026-09-03 12:13:4748.7313820.9565392°38km/h19264m5.4m/s-52.3°C1.3%65.5hPa0V00:00:0000:00:0000:00:00
SQ9EZE-142026-09-03 12:13:4448.7313920.9562590°33km/h19256m2.8m/s-52.2°C1.3%65.6hPa0V00:00:0000:00:0000:00:00
SQ9EZE-132026-09-03 12:13:4348.7313820.9561380°31km/h19252m5.3m/s-52.3°C1.3%65.6hPa0V00:00:0000:00:0000:00:00
SP9KGR-152026-09-03 12:13:3048.7312720.9548787°27km/h19184m4.8m/s-52.0°C1.3%66.3hPa0V00:00:0000:00:0000:00:00
SQ9EZE-132026-09-03 12:13:2748.7312420.9546378°16km/h19169m2.6m/s-52.0°C1.3%66.5hPa0V00:00:0000:00:0000:00:00
SP9SOS2026-09-03 12:13:2448.7312120.9544771°15km/h19154m6.5m/s-52.0°C1.3%66.6hPa0V00:00:0000:00:0000:00:00
SP9KGR-152026-09-03 12:13:1548.7313620.95379117°27km/h19106m3.2m/s-51.8°C1.3%67.1hPa0V00:00:0000:00:0000:00:00
SQ9EZE-132026-09-03 12:13:1248.7314020.9535064°13km/h19084m3.5m/s-51.9°C1.2%67.4hPa0V00:00:0000:00:0000:00:00
GYPAP8-172026-09-03 12:13:0248.7316120.95282129°35km/h19040m3.9m/s-52.2°C1.3%67.8hPa0V00:00:0000:00:0000:00:00
SP9KGR-152026-09-03 12:13:0048.7317020.95262123°31km/h19032m5.2m/s-52.5°C1.3%67.9hPa0V00:00:0000:00:0000:00:00
SP9SOS2026-09-03 12:12:5848.7317720.95242109°29km/h19019m5.7m/s-52.8°C1.3%68.0hPa0V00:00:0000:00:0000:00:00
SQ9EZE-132026-09-03 12:12:5648.7318420.95214121°24km/h19005m4.7m/s-52.9°C1.4%68.2hPa0V00:00:0000:00:0000:00:00
SP9KGR-152026-09-03 12:12:4448.7322820.95083106°37km/h18956m4.6m/s-53.1°C1.4%68.7hPa0V00:00:0000:00:0000:00:00
SQ9EZE-132026-09-03 12:12:4048.7324620.95024119°31km/h18932m5.6m/s-53.3°C1.4%69.0hPa0V00:00:0000:00:0000:00:00
SP9SOS2026-09-03 12:12:3348.7326920.94943101°40km/h18907m6.7m/s-53.4°C1.4%69.2hPa0V00:00:0000:00:0000:00:00
SQ9EZE-132026-09-03 12:12:2348.7329020.94824120°37km/h18861m2.1m/s-53.2°C1.4%69.7hPa0V00:00:0000:00:0000:00:00
SP9KGR-152026-09-03 12:12:1448.7330020.9472599°20km/h18821m5.3m/s-53.4°C1.4%70.2hPa0V00:00:0000:00:0000:00:00
SQ9EZE-132026-09-03 12:12:0848.7331020.94682116°31km/h18793m4.7m/s-53.4°C1.4%70.5hPa0V00:00:0000:00:0000:00:00
GYPAP8-172026-09-03 12:12:0048.7334320.94596127°20km/h18744m3.9m/s-53.3°C1.4%71.0hPa0V00:00:0000:00:0000:00:00
SP9KGR-152026-09-03 12:11:5848.7334920.94586132°18km/h18736m3.8m/s-53.2°C1.4%71.1hPa0V00:00:0000:00:0000:00:00
SQ9EZE-132026-09-03 12:11:5248.7337620.94543140°35km/h18704m2.6m/s-53.2°C1.4%71.5hPa0V00:00:0000:00:0000:00:00
SP9KGR-152026-09-03 12:11:4348.7342720.94460138°31km/h18656m6.2m/s-53.3°C1.4%71.9hPa0V00:00:0000:00:0000:00:00
SP9SOS2026-09-03 12:11:4148.7343220.94452137°33km/h18649m5.6m/s-53.2°C1.4%72.0hPa0V00:00:0000:00:0000:00:00
SQ9EZE-142026-09-03 12:11:2948.7351220.94333129°31km/h18587m4.7m/s-53.0°C1.4%72.7hPa0V00:00:0000:00:0000:00:00
SP9KGR-152026-09-03 12:11:2748.7351720.94324131°31km/h18583m4.4m/s-53.0°C1.4%72.8hPa0V00:00:0000:00:0000:00:00
SP9SOS2026-09-03 12:11:1648.7357520.94233145°24km/h18529m5.7m/s-53.1°C1.4%73.4hPa0V00:00:0000:00:0000:00:00
SP9KGR-152026-09-03 12:11:1148.7359720.94200123°22km/h18505m4.9m/s-53.2°C1.4%73.7hPa0V00:00:0000:00:0000:00:00
GYPAP8-172026-09-03 12:10:5748.7362820.94075111°29km/h18430m5.4m/s-53.3°C1.5%74.5hPa0V00:00:0000:00:0000:00:00
SP9KGR-152026-09-03 12:10:5548.7363120.94064113°33km/h18426m3.4m/s-53.3°C1.4%74.6hPa0V00:00:0000:00:0000:00:00
SQ9EZE-132026-09-03 12:10:5248.7364320.94012113°38km/h18409m5.3m/s-53.3°C1.4%74.8hPa0V00:00:0000:00:0000:00:00
SP9SOS2026-09-03 12:10:5148.7364320.94012113°38km/h18409m5.3m/s-53.3°C1.4%74.8hPa0V00:00:0000:00:0000:00:00
SP9KGR-152026-09-03 12:10:4048.7368020.93902111°35km/h18351m5.9m/s-53.0°C1.4%75.4hPa0V00:00:0000:00:0000:00:00
SQ9EZE-132026-09-03 12:10:3648.7369420.93847113°35km/h18332m7.1m/s-53.1°C1.4%75.7hPa0V00:00:0000:00:0000:00:00
SP9SOS2026-09-03 12:10:2548.7371720.93723102°49km/h18279m5.7m/s-53.4°C1.4%76.3hPa0V00:00:0000:00:0000:00:00
SP9KGR-152026-09-03 12:10:2448.7371920.9370599°47km/h18273m5.6m/s-53.4°C1.4%76.3hPa0V00:00:0000:00:0000:00:00
SQ9EZE-132026-09-03 12:10:2048.7372620.93646104°33km/h18254m4.7m/s-53.2°C1.4%76.6hPa0V00:00:0000:00:0000:00:00
SP9KGR-152026-09-03 12:10:1048.7373020.9351497°37km/h18199m5.9m/s-53.0°C1.4%77.3hPa0V00:00:0000:00:0000:00:00
SQ9EZE-132026-09-03 12:10:0548.7373620.9345993°20km/h18174m6.2m/s-53.0°C1.4%77.6hPa0V00:00:0000:00:0000:00:00
SP9SOS2026-09-03 12:10:0048.7373120.9342583°24km/h18154m5.5m/s-52.9°C1.4%77.8hPa0V00:00:0000:00:0000:00:00
SP9KGR-152026-09-03 12:09:5348.7373820.93345110°27km/h18121m4.1m/s-53.0°C1.4%78.2hPa0V00:00:0000:00:0000:00:00
SQ9EZE-132026-09-03 12:09:4948.7374520.93308116°13km/h18097m4.3m/s-52.9°C1.4%78.5hPa0V00:00:0000:00:0000:00:00
GYPAP8-172026-09-03 12:09:4648.7374820.9329195°20km/h18082m5.1m/s-52.9°C1.4%78.7hPa0V00:00:0000:00:0000:00:00
SP9KGR-152026-09-03 12:09:3848.7376220.93215120°20km/h18045m4.3m/s-52.8°C1.4%79.1hPa0V00:00:0000:00:0000:00:00
SP9SOS2026-09-03 12:09:3548.7377020.93196123°22km/h18032m4.8m/s-52.7°C1.4%79.3hPa0V00:00:0000:00:0000:00:00
SQ9EZE-132026-09-03 12:09:3248.7377520.93179108°27km/h18023m5.2m/s-52.7°C1.4%79.4hPa0V00:00:0000:00:0000:00:00
SP9KGR-152026-09-03 12:09:2148.7380720.93035120°35km/h17970m4.7m/s-52.6°C1.4%80.0hPa0V00:00:0000:00:0000:00:00
SQ9EZE-132026-09-03 12:09:1648.7382120.92983108°26km/h17946m4.7m/s-52.7°C1.3%80.4hPa0V00:00:0000:00:0000:00:00
SP9SOS2026-09-03 12:09:1048.7384620.92893120°49km/h17912m5.0m/s-52.6°C1.3%80.8hPa0V00:00:0000:00:0000:00:00
SP9KGR-152026-09-03 12:09:0648.7386220.92843113°46km/h17898m4.4m/s-52.4°C1.4%80.9hPa0V00:00:0000:00:0000:00:00
SQ9EZE-132026-09-03 12:09:0048.7388920.92762116°38km/h17868m5.3m/s-52.7°C1.4%81.4hPa0V00:00:0000:00:0000:00:00
SQ9EZE-142026-09-03 12:08:5448.7391420.92672112°42km/h17839m5.8m/s-52.8°C1.4%81.7hPa0V00:00:0000:00:0000:00:00
SP9KGR-152026-09-03 12:08:5048.7392920.92614114°38km/h17820m4.7m/s-52.8°C1.4%82.0hPa0V00:00:0000:00:0000:00:00
SQ9EZE-132026-09-03 12:08:4648.7394920.92547118°40km/h17796m4.2m/s-52.7°C1.4%82.2hPa0V00:00:0000:00:0000:00:00
SP9SOS2026-09-03 12:08:4448.7395320.92533118°40km/h17792m4.0m/s-52.6°C1.4%82.3hPa0V00:00:0000:00:0000:00:00
GYPAP8-172026-09-03 12:08:3648.7397720.92414100°31km/h17749m5.9m/s-52.7°C1.4%82.9hPa0V00:00:0000:00:0000:00:00
SP9KGR-152026-09-03 12:08:3448.7397720.9240298°33km/h17743m5.8m/s-52.7°C1.4%82.9hPa0V00:00:0000:00:0000:00:00
SQ9EZE-132026-09-03 12:08:2848.7398220.9233492°31km/h17714m5.0m/s-52.7°C1.4%83.3hPa0V00:00:0000:00:0000:00:00
SP9KGR-152026-09-03 12:08:1948.7397820.9223786°24km/h17670m4.4m/s-52.7°C1.4%83.9hPa0V00:00:0000:00:0000:00:00
SP9SOS2026-09-03 12:08:1848.7397820.9222889°24km/h17666m4.4m/s-52.6°C1.4%83.9hPa0V00:00:0000:00:0000:00:00
SQ9EZE-132026-09-03 12:08:1248.7397420.9216889°27km/h17638m5.0m/s-52.5°C1.4%84.3hPa0V00:00:0000:00:0000:00:00
SP9KGR-152026-09-03 12:08:0448.7398420.92076102°26km/h17592m5.8m/s-52.5°C1.4%84.9hPa0V00:00:0000:00:0000:00:00
SQ9EZE-132026-09-03 12:07:5748.7399320.92016106°24km/h17563m3.3m/s-52.6°C1.4%85.3hPa0V00:00:0000:00:0000:00:00
SP9SOS2026-09-03 12:07:5348.7400420.91981121°29km/h17544m5.1m/s-52.5°C1.4%85.5hPa0V00:00:0000:00:0000:00:00
HA6NAB-112026-09-03 12:07:5148.7401420.91951118°31km/h17530m4.8m/s-52.6°C1.4%85.7hPa0V00:00:0000:00:0000:00:00
SP9KGR-152026-09-03 12:07:4848.7402520.91917116°33km/h17514m4.7m/s-52.5°C1.4%85.9hPa0V00:00:0000:00:0000:00:00
GYPAP8-172026-09-03 12:07:4348.7404220.91860120°35km/h17492m5.3m/s-52.6°C1.4%86.2hPa0V00:00:0000:00:0000:00:00
SQ9EZE-132026-09-03 12:07:4248.7404620.91848119°33km/h17486m5.0m/s-52.5°C1.4%86.3hPa0V00:00:0000:00:0000:00:00
HA6NAB-112026-09-03 12:07:4148.7404620.91848119°33km/h17486m5.0m/s-52.5°C1.4%86.3hPa0V00:00:0000:00:0000:00:00
HA6NAB-112026-09-03 12:07:3548.7406520.91775106°37km/h17457m4.5m/s-52.8°C1.4%86.7hPa0V00:00:0000:00:0000:00:00
SP9KGR-152026-09-03 12:07:3248.7407520.91736115°38km/h17444m3.7m/s-52.7°C1.4%86.9hPa0V00:00:0000:00:0000:00:00
HA6NAB-112026-09-03 12:07:3048.7408220.91710115°37km/h17433m6.6m/s-52.7°C1.4%87.0hPa0V00:00:0000:00:0000:00:00
SP9SOS2026-09-03 12:07:2948.7408920.91686116°31km/h17422m6.3m/s-52.7°C1.4%87.1hPa0V00:00:0000:00:0000:00:00
HA6NAB-112026-09-03 12:07:2448.7410220.91642107°31km/h17404m7.1m/s-52.8°C1.4%87.4hPa0V00:00:0000:00:0000:00:00
SQ9EZE-132026-09-03 12:07:2248.7410920.91603111°40km/h17389m2.7m/s-52.7°C1.4%87.6hPa0V00:00:0000:00:0000:00:00
HA6NAB-112026-09-03 12:07:2048.7411720.91573113°42km/h17381m5.8m/s-52.8°C1.4%87.7hPa0V00:00:0000:00:0000:00:00
SP9KGR-152026-09-03 12:07:1748.7412520.91542112°44km/h17369m4.1m/s-52.7°C1.4%87.9hPa0V00:00:0000:00:0000:00:00
HA6NAB-112026-09-03 12:07:1448.7414320.91485117°40km/h17349m7.2m/s-53.0°C1.4%88.1hPa0V00:00:0000:00:0000:00:00
SQ9EZE-132026-09-03 12:07:0548.7416020.91368101°49km/h17305m4.8m/s-53.2°C1.4%88.8hPa0V00:00:0000:00:0000:00:00
SP9SOS2026-09-03 12:07:0348.7416420.91330103°49km/h17296m2.1m/s-53.1°C0%88.8hPa0V00:00:0000:00:0000:00:00
SP9KGR-152026-09-03 12:07:0148.7417120.91293109°51km/h17286m6.7m/s-53.2°C1.5%89.0hPa0V00:00:0000:00:0000:00:00
GYPAP8-172026-09-03 12:06:5048.7419220.9114492°38km/h17232m5.8m/s-53.2°C1.5%89.7hPa0V00:00:0000:00:0000:00:00
SQ9EZE-132026-09-03 12:06:4948.7419220.91129100°40km/h17226m5.0m/s-53.2°C1.5%89.9hPa0V00:00:0000:00:0000:00:00
SP9KGR-152026-09-03 12:06:4648.7420120.91084112°40km/h17213m5.1m/s-53.1°C1.5%90.0hPa0V00:00:0000:00:0000:00:00
SP9SOS2026-09-03 12:06:3848.7422120.9096496°33km/h17172m5.0m/s-53.0°C0%90.6hPa0V00:00:0000:00:0000:00:00
SQ9EZE-132026-09-03 12:06:3448.7422520.9090997°37km/h17151m3.3m/s-52.9°C1.4%90.9hPa0V00:00:0000:00:0000:00:00
SP9KGR-152026-09-03 12:06:3048.7422920.90870101°33km/h17137m7.0m/s-52.9°C1.4%91.1hPa0V00:00:0000:00:0000:00:00
SQ9EZE-132026-09-03 12:06:1848.7427220.90716109°33km/h17072m3.1m/s-53.5°C1.5%92.1hPa0V00:00:0000:00:0000:00:00
SP9KGR-152026-09-03 12:06:1548.7427720.90693111°31km/h17064m2.3m/s-53.8°C1.6%92.1hPa0V00:00:0000:00:0000:00:00
SP9KGR-152026-09-03 12:06:0048.7434120.90500122°37km/h16999m4.4m/s-54.0°C1.7%93.1hPa0V00:00:0000:00:0000:00:00
GYPAP8-172026-09-03 12:05:5748.7435520.90461117°40km/h16986m4.2m/s-54.1°C1.6%93.3hPa0V00:00:0000:00:0000:00:00
SP9KGR-152026-09-03 12:05:4548.7439520.90293112°27km/h16919m5.2m/s-53.7°C1.6%94.3hPa0V00:00:0000:00:0000:00:00
SQ9EZE-132026-09-03 12:05:4348.7439720.90284116°27km/h16914m4.0m/s-53.7°C1.6%94.3hPa0V00:00:0000:00:0000:00:00
SP9KGR-152026-09-03 12:05:2948.7444720.90136122°29km/h16850m3.3m/s-53.7°C1.6%95.3hPa0V00:00:0000:00:0000:00:00
SQ9EZE-132026-09-03 12:05:2848.7445520.90118131°29km/h16838m6.2m/s-53.7°C1.6%95.4hPa0V00:00:0000:00:0000:00:00
SP9KGR-152026-09-03 12:05:1448.7453420.89967120°35km/h16772m4.3m/s-53.8°C1.6%96.4hPa0V00:00:0000:00:0000:00:00
SQ9EZE-132026-09-03 12:05:1248.7454220.89942120°38km/h16764m3.7m/s-53.8°C1.6%96.5hPa0V00:00:0000:00:0000:00:00
GYPAP8-172026-09-03 12:05:0548.7457820.89869119°31km/h16732m4.6m/s-53.7°C1.6%97.0hPa0V00:00:0000:00:0000:00:00
SP9SOS2026-09-03 12:04:5848.7461520.89759117°49km/h16699m4.6m/s-53.4°C0%97.5hPa0V00:00:0000:00:0000:00:00
SQ9EZE-132026-09-03 12:04:5648.7462620.89727117°46km/h16692m3.2m/s-53.3°C1.6%97.6hPa0V00:00:0000:00:0000:00:00
SP9KGR-152026-09-03 12:04:4348.7469720.89515121°57km/h16628m5.9m/s-54.1°C1.7%98.6hPa0V00:00:0000:00:0000:00:00
SP9SOS2026-09-03 12:04:3248.7475520.89326122°53km/h16578m5.2m/s-54.0°C0%99.3hPa0V00:00:0000:00:0000:00:00
SP9KGR-152026-09-03 12:04:2748.7478120.89233108°51km/h16556m7.1m/s-54.0°C1.6%99.7hPa0V00:00:0000:00:0000:00:00
SQ9EZE-142026-09-03 12:04:1448.7483220.89001112°46km/h16494m6.5m/s-53.9°C1.6%100.7hPa0V00:00:0000:00:0000:00:00
SP9KGR-152026-09-03 12:04:1048.7484220.88951105°46km/h16480m2.9m/s-53.8°C1.6%101.0hPa0V00:00:0000:00:0000:00:00
SP9SOS2026-09-03 12:04:0548.7485120.88866102°46km/h16456m5.6m/s-53.9°C0%101.3hPa0V00:00:0000:00:0000:00:00
HA6NAB-112026-09-03 12:03:5548.7488020.8867392°49km/h16407m3.8m/s-54.1°C1.6%102.1hPa0V00:00:0000:00:0000:00:00
HA6NAB-112026-09-03 12:03:4848.7488720.8853897°44km/h16375m1.2m/s-54.2°C1.6%102.6hPa0V00:00:0000:00:0000:00:00
SP9KGR-152026-09-03 12:03:3948.7488920.8840990°44km/h16338m5.4m/s-54.3°C1.6%103.2hPa0V00:00:0000:00:0000:00:00
HA6NAB-112026-09-03 12:03:3848.7488920.8839391°42km/h16333m4.5m/s-54.2°C1.7%103.3hPa0V00:00:0000:00:0000:00:00
SP9SOS2026-09-03 12:03:3548.7489020.8833096°37km/h16317m7.0m/s-54.2°C0%103.5hPa0V00:00:0000:00:0000:00:00
HA6NAB-112026-09-03 12:03:3348.7489220.8830499°31km/h16305m3.4m/s-54.1°C1.7%103.7hPa0V00:00:0000:00:0000:00:00
SQ9EZE-132026-09-03 12:03:2648.7488720.8820779°42km/h16274m4.5m/s-54.0°C1.6%104.2hPa0V00:00:0000:00:0000:00:00
SP9KGR-152026-09-03 12:03:2548.7488420.8819179°42km/h16269m4.3m/s-53.9°C1.6%104.3hPa0V00:00:0000:00:0000:00:00
GYPAP8-172026-09-03 12:03:1948.7487920.8812996°27km/h16245m3.8m/s-53.7°C1.6%104.7hPa0V00:00:0000:00:0000:00:00
SP9KGR-152026-09-03 12:03:1048.7487420.8800682°35km/h16203m4.2m/s-53.4°C1.7%105.4hPa0V00:00:0000:00:0000:00:00
SQ9EZE-132026-09-03 12:03:0848.7487220.8798291°27km/h16193m4.6m/s-53.3°C1.6%105.5hPa0V00:00:0000:00:0000:00:00
SP9KGR-152026-09-03 12:02:5348.7487920.87831100°33km/h16132m4.5m/s-52.8°C1.6%106.6hPa0V00:00:0000:00:0000:00:00
SQ9EZE-132026-09-03 12:02:4748.7488620.8777595°26km/h16106m3.9m/s-52.7°C1.6%107.0hPa0V00:00:0000:00:0000:00:00
SP9KGR-152026-09-03 12:02:3848.7489920.87656115°33km/h16060m3.8m/s-52.3°C1.5%107.7hPa0V00:00:0000:00:0000:00:00
SQ9EZE-132026-09-03 12:02:3248.7491320.87582100°33km/h16035m3.8m/s-52.2°C1.5%108.2hPa0V00:00:0000:00:0000:00:00
GYPAP8-172026-09-03 12:02:2648.7491720.87525108°29km/h16014m5.3m/s-52.2°C1.5%108.5hPa0V00:00:0000:00:0000:00:00
SP9KGR-152026-09-03 12:02:2248.7493620.87482129°37km/h15997m5.9m/s-52.3°C1.5%108.8hPa0V00:00:0000:00:0000:00:00
SQ9EZE-132026-09-03 12:02:1648.7495320.8741694°29km/h15969m5.1m/s-52.5°C1.5%109.3hPa0V00:00:0000:00:0000:00:00
SQ9EZE-142026-09-03 12:02:0948.7498420.87315126°38km/h15931m6.3m/s-52.7°C1.6%109.9hPa0V00:00:0000:00:0000:00:00
SP9KGR-152026-09-03 12:02:0648.7499420.87292123°35km/h15918m6.8m/s-52.6°C1.6%110.1hPa0V00:00:0000:00:0000:00:00
SQ9EZE-132026-09-03 12:02:0048.7501420.87214115°46km/h15888m3.7m/s-52.7°C1.6%110.6hPa0V00:00:0000:00:0000:00:00
HA6NAB-112026-09-03 12:01:5548.7503620.87136109°47km/h15861m5.7m/s-52.7°C1.5%111.1hPa0V00:00:0000:00:0000:00:00
SQ9EZE-142026-09-03 12:01:5348.7504920.87085119°47km/h15846m4.9m/s-52.5°C1.5%111.3hPa0V00:00:0000:00:0000:00:00
SP9KGR-152026-09-03 12:01:5048.7506220.87053124°51km/h15836m5.3m/s-52.4°C1.6%111.5hPa0V00:00:0000:00:0000:00:00
HA6NAB-112026-09-03 12:01:4848.7507620.87020122°51km/h15826m5.2m/s-52.5°C1.6%111.7hPa0V00:00:0000:00:0000:00:00
SQ9EZE-132026-09-03 12:01:4348.7511020.86932121°55km/h15801m4.3m/s-52.7°C1.6%112.1hPa0V00:00:0000:00:0000:00:00
SP9KGR-152026-09-03 12:01:3548.7516820.86799119°47km/h15769m4.3m/s-53.0°C1.6%112.7hPa0V00:00:0000:00:0000:00:00
GYPAP8-172026-09-03 12:01:3248.7518520.86747116°55km/h15755m2.7m/s-53.0°C1.6%113.0hPa0V00:00:0000:00:0000:00:00
SQ9EZE-132026-09-03 12:01:2548.7522120.86609114°58km/h15726m4.9m/s-53.1°C1.6%113.4hPa0V00:00:0000:00:0000:00:00
SP9KGR-152026-09-03 12:01:2048.7525420.86497106°47km/h15699m5.6m/s-53.2°C1.6%113.9hPa0V00:00:0000:00:0000:00:00
SQ9EZE-132026-09-03 12:01:0948.7528720.86328111°47km/h15649m7.5m/s-53.1°C1.6%114.8hPa0V00:00:0000:00:0000:00:00
SP9KGR-152026-09-03 12:01:0448.7531020.86240113°51km/h15626m5.3m/s-53.0°C1.6%115.2hPa0V00:00:0000:00:0000:00:00
SQ9EZE-132026-09-03 12:00:5348.7536720.86061116°47km/h15571m5.8m/s-53.0°C1.6%116.1hPa0V00:00:0000:00:0000:00:00
SP9KGR-152026-09-03 12:00:4948.7539220.85968115°58km/h15549m5.5m/s-53.1°C1.6%116.6hPa0V00:00:0000:00:0000:00:00
SP9KGR-152026-09-03 12:00:3448.7548020.85656106°62km/h15481m4.3m/s-53.9°C1.7%117.9hPa0V00:00:0000:00:0000:00:00
GYPAP8-172026-09-03 12:00:3148.7549620.85586115°66km/h15465m4.8m/s-53.7°C1.7%118.2hPa0V00:00:0000:00:0000:00:00
SP9KGR-152026-09-03 12:00:1848.7556020.85333101°60km/h15413m4.2m/s-53.5°C1.7%119.1hPa0V00:00:0000:00:0000:00:00
SP9KGR-152026-09-03 12:00:0248.7563420.85012109°57km/h15338m4.8m/s-52.9°C1.7%120.5hPa0V00:00:0000:00:0000:00:00
SQ9EZE-142026-09-03 11:59:5048.7568220.84791110°47km/h15284m5.8m/s-52.6°C1.7%121.5hPa0V00:00:0000:00:0000:00:00
SQ9EZE-132026-09-03 11:59:4848.7569620.84734112°55km/h15270m4.6m/s-52.5°C1.7%121.8hPa0V00:00:0000:00:0000:00:00
SP9KGR-152026-09-03 11:59:4748.7569620.84734112°55km/h15270m4.6m/s-52.5°C0%121.8hPa0V00:00:0000:00:0000:00:00
SQ9EZE-142026-09-03 11:59:3548.7574620.84525110°49km/h15217m5.1m/s-52.2°C1.6%122.8hPa0V00:00:0000:00:0000:00:00
SP9KGR-152026-09-03 11:59:3148.7576620.84456122°51km/h15195m1.7m/s0°C0%123.2hPa0V00:00:0000:00:0000:00:00
GYPAP8-172026-09-03 11:59:2648.7579420.84372113°47km/h15170m4.2m/s-52.1°C1.7%123.7hPa0V00:00:0000:00:0000:00:00
SQ9EZE-142026-09-03 11:59:2048.7582820.84248120°57km/h15139m5.5m/s-52.1°C1.7%124.2hPa0V00:00:0000:00:0000:00:00
SP9KGR-152026-09-03 11:59:1548.7586020.84175129°55km/h15120m4.6m/s0°C0%0hPa0V00:00:0000:00:0000:00:00
SP9KGR-152026-09-03 11:58:5948.7597220.83864122°62km/h15036m5.9m/s0°C0%0hPa0V00:00:0000:00:0000:00:00
SQ9EZE-132026-09-03 11:58:5748.7598920.83822120°64km/h15023m5.8m/s-52.0°C1.7%126.6hPa0V00:00:0000:00:0000:00:00
HA6NAB-112026-09-03 11:58:5648.7599620.83801117°64km/h15017m6.7m/s-52.0°C1.7%126.7hPa0V00:00:0000:00:0000:00:00
HA6NAB-112026-09-03 11:58:5148.7602720.83695116°57km/h14986m4.1m/s-51.8°C1.7%127.3hPa0V00:00:0000:00:0000:00:00
HA6NAB-112026-09-03 11:58:4648.7606420.83582119°60km/h14958m4.1m/s-52.1°C1.7%127.8hPa0V00:00:0000:00:0000:00:00
SQ9EZE-132026-09-03 11:58:2848.7617120.83193110°77km/h14872m5.7m/s-53.1°C1.8%129.6hPa0V00:00:0000:00:0000:00:00
GYPAP8-172026-09-03 11:58:2748.7617820.83165111°80km/h14866m5.9m/s-53.2°C1.8%129.7hPa0V00:00:0000:00:0000:00:00
SQ9EZE-132026-09-03 11:58:0948.7626220.82771108°62km/h14790m4.5m/s-53.5°C1.9%131.2hPa0V00:00:0000:00:0000:00:00
SQ9EZE-132026-09-03 11:57:5348.7634520.82397107°68km/h14712m4.1m/s-53.6°C1.9%132.8hPa0V00:00:0000:00:0000:00:00
HA6NAB-112026-09-03 11:57:3948.7641120.82142110°62km/h14650m5.7m/s-53.4°C1.9%134.1hPa0V00:00:0000:00:0000:00:00
SQ9EZE-132026-09-03 11:57:3548.7643020.82059113°51km/h14632m7.0m/s-53.4°C1.9%134.5hPa0V00:00:0000:00:0000:00:00
HA6NAB-112026-09-03 11:57:3448.7644120.82023120°51km/h14619m5.3m/s-53.3°C1.9%134.8hPa0V00:00:0000:00:0000:00:00
SP9SOS2026-09-03 11:57:3248.7645320.81991123°49km/h14608m5.8m/s-53.3°C0%135.0hPa0V00:00:0000:00:0000:00:00
HA6NAB-112026-09-03 11:57:2848.7647320.81941121°51km/h14595m6.8m/s-53.2°C1.9%135.3hPa0V00:00:0000:00:0000:00:00
HA6NAB-112026-09-03 11:57:2348.7650620.81853119°53km/h14572m6.3m/s-53.0°C1.9%135.8hPa0V00:00:0000:00:0000:00:00
GYPAP8-172026-09-03 11:57:2248.7651220.81836118°49km/h14567m4.2m/s-53.0°C1.9%135.9hPa0V00:00:0000:00:0000:00:00
SQ9EZE-132026-09-03 11:57:2048.7652320.81802117°47km/h14557m2.6m/s-52.9°C1.9%136.1hPa0V00:00:0000:00:0000:00:00
HA6NAB-112026-09-03 11:57:1748.7653820.81756120°44km/h14544m3.8m/s-52.8°C1.9%136.4hPa0V00:00:0000:00:0000:00:00
SQ9EZE-142026-09-03 11:57:1648.7655120.81727127°49km/h14533m3.9m/s-52.7°C1.9%136.6hPa0V00:00:0000:00:0000:00:00
HA6NAB-112026-09-03 11:57:1248.7658320.81661126°58km/h14513m5.0m/s-52.6°C1.9%137.0hPa0V00:00:0000:00:0000:00:00
HA6NAB-112026-09-03 11:57:0548.7662620.81559126°44km/h14486m4.5m/s-52.5°C1.8%137.6hPa0V00:00:0000:00:0000:00:00
SQ9EZE-132026-09-03 11:57:0448.7663220.81546129°44km/h14481m5.9m/s-52.5°C1.8%137.7hPa0V00:00:0000:00:0000:00:00
HA6NAB-112026-09-03 11:57:0148.7666520.81500145°47km/h14462m5.8m/s-52.5°C1.8%138.1hPa0V00:00:0000:00:0000:00:00
HA6NAB-112026-09-03 11:56:5348.7672820.81394125°60km/h14428m5.4m/s-52.3°C1.9%138.8hPa0V00:00:0000:00:0000:00:00
SQ9EZE-132026-09-03 11:56:4848.7677920.81290130°55km/h14398m7.7m/s-52.1°C1.9%139.4hPa0V00:00:0000:00:0000:00:00
HA6NAB-112026-09-03 11:56:4748.7677920.81290130°55km/h14398m7.7m/s-52.1°C1.9%139.4hPa0V00:00:0000:00:0000:00:00
SP9SOS2026-09-03 11:56:4648.7679920.81256135°64km/h14387m4.3m/s-52.0°C0%139.7hPa0V00:00:0000:00:0000:00:00
HA6NAB-112026-09-03 11:56:4248.7683420.81202136°66km/h14369m7.1m/s-52.0°C1.8%140.1hPa0V00:00:0000:00:0000:00:00
HA6NAB-112026-09-03 11:56:3648.7689820.81099127°60km/h14336m5.4m/s-52.1°C1.8%140.8hPa0V00:00:0000:00:0000:00:00
HA6NAB-112026-09-03 11:56:3148.7694720.81005136°69km/h14310m4.4m/s-52.2°C1.9%141.4hPa0V00:00:0000:00:0000:00:00
SQ9EZE-132026-09-03 11:56:2948.7698520.80948135°71km/h14295m5.4m/s-52.2°C1.8%141.7hPa0V00:00:0000:00:0000:00:00
HA6NAB-112026-09-03 11:56:2548.7702020.80888129°69km/h14280m3.9m/s-52.3°C1.8%142.0hPa0V00:00:0000:00:0000:00:00
HA6NAB-112026-09-03 11:56:1948.7708020.80759131°68km/h14254m3.3m/s-52.1°C1.9%142.6hPa0V00:00:0000:00:0000:00:00
SP9SOS2026-09-03 11:56:1848.7710420.80718133°71km/h14246m3.3m/s0°C0%142.7hPa0V00:00:0000:00:0000:00:00
GYPAP8-172026-09-03 11:56:1548.7712820.80676131°73km/h14239m4.3m/s-52.1°C1.9%142.9hPa0V00:00:0000:00:0000:00:00
SP9SOS2026-09-03 11:55:5348.7738620.80167125°69km/h14142m4.3m/s0°C0%145.0hPa0V00:00:0000:00:0000:00:00
HA6NAB-112026-09-03 11:55:2748.7762120.79650128°75km/h14029m6.2m/s-51.9°C2.0%147.5hPa0V00:00:0000:00:0000:00:00
SP9SOS2026-09-03 11:55:2548.7765620.79559124°78km/h14014m5.0m/s0°C0%147.9hPa0V00:00:0000:00:0000:00:00
HA6NAB-112026-09-03 11:55:2348.7767620.79510123°73km/h14006m6.1m/s-51.8°C2.0%148.1hPa0V00:00:0000:00:0000:00:00
SQ9EZE-132026-09-03 11:55:1848.7772420.79396123°68km/h13978m2.7m/s-51.7°C1.9%148.8hPa0V00:00:0000:00:0000:00:00
HA6NAB-112026-09-03 11:55:1748.7772420.79396123°68km/h13978m2.7m/s-51.7°C1.9%148.8hPa0V00:00:0000:00:0000:00:00
GYPAP8-172026-09-03 11:55:1248.7776720.79287124°71km/h13958m1.8m/s-51.4°C2.0%149.2hPa0V00:00:0000:00:0000:00:00
HA6NAB-112026-09-03 11:55:1148.7777720.79264125°73km/h13956m3.8m/s-51.4°C2.0%149.3hPa0V00:00:0000:00:0000:00:00
HA6NAB-112026-09-03 11:55:0548.7784020.79124126°71km/h13927m5.7m/s-51.4°C1.9%149.9hPa0V00:00:0000:00:0000:00:00
HA6NAB-112026-09-03 11:55:0048.7789220.79012127°73km/h13902m3.7m/s-51.4°C2.0%150.5hPa0V00:00:0000:00:0000:00:00
SQ9EZE-132026-09-03 11:54:5848.7792420.78943125°75km/h13890m4.7m/s-51.4°C2.0%150.8hPa0V00:00:0000:00:0000:00:00
SQ9EZE-142026-09-03 11:54:5748.7793420.78919124°73km/h13886m4.7m/s-51.3°C2.0%150.9hPa0V00:00:0000:00:0000:00:00
HA6NAB-112026-09-03 11:54:5548.7794520.78895123°71km/h13881m4.1m/s-51.3°C2.0%151.0hPa0V00:00:0000:00:0000:00:00
HA6NAB-112026-09-03 11:54:4848.7800720.78733122°75km/h13850m4.1m/s-51.2°C2.0%151.7hPa0V00:00:0000:00:0000:00:00
HA6NAB-112026-09-03 11:54:4348.7805320.78611119°68km/h13829m4.6m/s-51.3°C2.0%152.2hPa0V00:00:0000:00:0000:00:00
SQ9EZE-142026-09-03 11:54:4148.7806920.78566119°66km/h13822m2.1m/s-51.3°C2.0%152.4hPa0V00:00:0000:00:0000:00:00
SQ9EZE-132026-09-03 11:54:4048.7807720.78544120°66km/h13818m5.1m/s-51.4°C2.0%152.4hPa0V00:00:0000:00:0000:00:00
HA6NAB-112026-09-03 11:54:3848.7809520.78499124°69km/h13807m4.6m/s-51.4°C2.2%152.7hPa0V00:00:0000:00:0000:00:00
HA6NAB-112026-09-03 11:54:3248.7815420.78356119°78km/h13779m2.2m/s-51.4°C2.1%153.4hPa0V00:00:0000:00:0000:00:00
HA6NAB-112026-09-03 11:54:2748.7819520.78229117°71km/h13757m3.9m/s-51.5°C2.2%153.9hPa0V00:00:0000:00:0000:00:00
HA6NAB-112026-09-03 11:54:2148.7824720.78080123°78km/h13730m4.4m/s-51.3°C2.1%154.5hPa0V00:00:0000:00:0000:00:00
SQ9EZE-132026-09-03 11:54:0848.7837520.77747121°75km/h13661m6.8m/s-51.5°C2.2%156.2hPa0V00:00:0000:00:0000:00:00
SP9SOS2026-09-03 11:54:0748.7837520.77747121°75km/h13661m6.8m/s0°C0%0hPa0V00:00:0000:00:0000:00:00
GYPAP8-172026-09-03 11:54:0648.7838420.77722120°77km/h13656m2.7m/s-51.4°C2.2%156.3hPa0V00:00:0000:00:0000:00:00
SQ9EZE-132026-09-03 11:53:4848.7856820.77292116°71km/h13570m4.6m/s-52.3°C2.2%158.4hPa0V00:00:0000:00:0000:00:00
HA6NAB-112026-09-03 11:53:4748.7856820.77292116°71km/h13570m4.6m/s-52.3°C2.2%158.4hPa0V00:00:0000:00:0000:00:00
SP9SOS2026-09-03 11:53:4248.7861520.77155120°62km/h13541m4.7m/s0°C0%0hPa0V00:00:0000:00:0000:00:00
HA6NAB-112026-09-03 11:53:3648.7865420.77047119°66km/h13518m4.7m/s-52.4°C2.4%159.6hPa0V00:00:0000:00:0000:00:00
HA6NAB-112026-09-03 11:53:3048.7869620.76914114°66km/h13492m3.7m/s-52.3°C2.4%160.3hPa0V00:00:0000:00:0000:00:00
HA6NAB-112026-09-03 11:53:2448.7874020.76792124°58km/h13462m4.4m/s-52.2°C2.3%161.1hPa0V00:00:0000:00:0000:00:00
HA6NAB-112026-09-03 11:53:1848.7878820.76673123°64km/h13423m5.4m/s-51.9°C2.3%162.0hPa0V00:00:0000:00:0000:00:00
SP9SOS2026-09-03 11:53:1648.7881520.76612127°62km/h13406m5.3m/s0°C0%0hPa0V00:00:0000:00:0000:00:00
GYPAP8-172026-09-03 11:53:1448.7882520.76592129°62km/h13401m6.1m/s-51.7°C2.3%162.6hPa0V00:00:0000:00:0000:00:00
SQ9EZE-132026-09-03 11:52:4148.7916420.75997135°69km/h13229m3.7m/s-51.4°C2.1%167.0hPa0V00:00:0000:00:0000:00:00
SQ9EZE-142026-09-03 11:52:3048.7931020.75752132°84km/h13183m4.0m/s-51.5°C2.1%168.2hPa0V00:00:0000:00:0000:00:00
SQ9EZE-132026-09-03 11:52:1748.7948820.75387126°78km/h13126m4.3m/s-52.0°C2.1%169.6hPa0V00:00:0000:00:0000:00:00
SQ9EZE-142026-09-03 11:52:1548.7950020.75363127°78km/h13122m4.5m/s-52.1°C2.2%169.8hPa0V00:00:0000:00:0000:00:00
GYPAP8-172026-09-03 11:52:0148.7964720.74996120°78km/h13064m4.0m/s-52.7°C2.4%171.3hPa0V00:00:0000:00:0000:00:00
SQ9EZE-132026-09-03 11:51:3748.7988220.74386127°68km/h12961m4.5m/s-52.6°C2.7%174.0hPa0V00:00:0000:00:0000:00:00
SQ9EZE-132026-09-03 11:51:1948.8007020.74032130°64km/h12886m3.8m/s-52.6°C3.2%176.0hPa0V00:00:0000:00:0000:00:00
GYPAP8-172026-09-03 11:51:0548.8022420.73769142°69km/h12817m4.0m/s-52.5°C3.6%177.9hPa0V00:00:0000:00:0000:00:00
SQ9EZE-132026-09-03 11:51:0348.8025020.73734137°68km/h12808m4.8m/s-52.5°C3.7%178.1hPa0V00:00:0000:00:0000:00:00
SQ9EZE-132026-09-03 11:50:4348.8051920.73309130°86km/h12704m5.7m/s-52.5°C5.0%181.1hPa0V00:00:0000:00:0000:00:00
SQ9EZE-132026-09-03 11:50:2548.8077320.72849128°93km/h12613m5.9m/s-53.2°C6.3%183.7hPa0V00:00:0000:00:0000:00:00
SQ9EZE-132026-09-03 11:50:0948.8097020.72372120°84km/h12531m5.8m/s-54.1°C7.6%186.0hPa0V00:00:0000:00:0000:00:00
SQ9EZE-132026-09-03 11:49:5348.8115320.71939127°84km/h12451m4.0m/s-54.2°C9.5%188.4hPa0V00:00:0000:00:0000:00:00
SQ9EZE-142026-09-03 11:49:4948.8119920.71835122°78km/h12433m6.3m/s-54.6°C9.9%188.9hPa0V00:00:0000:00:0000:00:00
SQ9EZE-132026-09-03 11:49:3848.8132320.71541130°77km/h12372m7.0m/s-54.4°C10.6%190.7hPa0V00:00:0000:00:0000:00:00
SQ9EZE-142026-09-03 11:49:3448.8136720.71453129°75km/h12353m4.6m/s-54.3°C10.8%191.3hPa0V00:00:0000:00:0000:00:00
SQ9EZE-132026-09-03 11:49:2048.8154520.71150137°78km/h12279m6.4m/s-54.0°C12.0%193.6hPa0V00:00:0000:00:0000:00:00
HA6NAB-112026-09-03 11:49:1548.8160720.71073141°82km/h12256m5.1m/s-54.1°C0%0hPa0V00:00:0000:00:0000:00:00
HA6NAB-112026-09-03 11:49:0948.8169820.70936136°84km/h12225m4.6m/s-54.2°C0%0hPa0V00:00:0000:00:0000:00:00
HA6NAB-112026-09-03 11:49:0448.8177120.70824134°82km/h12199m4.9m/s-54.1°C0%0hPa0V00:00:0000:00:0000:00:00
SQ9EZE-132026-09-03 11:49:0348.8178620.70801135°84km/h12194m3.8m/s-54.1°C14.7%196.2hPa0V00:00:0000:00:0000:00:00
HA6NAB-112026-09-03 11:48:5848.8187420.70690143°100km/h12169m6.2m/s-54.6°C0%0hPa0V00:00:0000:00:0000:00:00
HA6NAB-112026-09-03 11:48:5248.8198920.70549143°91km/h12135m6.5m/s-55.9°C0%0hPa0V00:00:0000:00:0000:00:00
HA6NAB-112026-09-03 11:48:4748.8208220.70422133°104km/h12105m3.8m/s-55.6°C0%0hPa0V00:00:0000:00:0000:00:00
HA6NAB-112026-09-03 11:48:4148.8219420.70247137°110km/h12076m4.2m/s-55.6°C0%0hPa0V00:00:0000:00:0000:00:00
HA6NAB-112026-09-03 11:48:3548.8231220.70070137°110km/h12048m5.8m/s0°C0%0hPa0V00:00:0000:00:0000:00:00
SQ9EZE-132026-09-03 11:48:3248.8237120.69985137°104km/h12030m4.8m/s-55.5°C17.5%201.3hPa0V00:00:0000:00:0000:00:00
HA6NAB-112026-09-03 11:48:3048.8242720.69904137°102km/h12012m5.1m/s0°C0%0hPa0V00:00:0000:00:0000:00:00
SQ9EZE-132026-09-03 11:48:1748.8265620.69560138°102km/h11946m6.6m/s-54.8°C15.8%203.9hPa0V00:00:0000:00:0000:00:00
GYPAP8-172026-09-03 11:48:1248.8276920.69393138°106km/h11919m4.8m/s-54.5°C15.6%204.7hPa0V00:00:0000:00:0000:00:00
SQ9EZE-132026-09-03 11:48:0148.8296020.69110134°102km/h11863m3.5m/s-54.0°C15.6%206.5hPa0V00:00:0000:00:0000:00:00
SQ9EZE-132026-09-03 11:47:4548.8327920.68656138°108km/h11781m4.6m/s-53.2°C14.8%209.1hPa0V00:00:0000:00:0000:00:00
SQ9EZE-142026-09-03 11:47:3448.8349620.68340138°110km/h11726m3.2m/s-52.8°C14.8%211.0hPa0V00:00:0000:00:0000:00:00
SQ9EZE-132026-09-03 11:47:2948.8359520.68201137°108km/h11701m3.5m/s-52.7°C14.5%211.7hPa0V00:00:0000:00:0000:00:00
HA6NAB-112026-09-03 11:47:2648.8365620.68112138°115km/h11686m4.2m/s0°C0%0hPa0V00:00:0000:00:0000:00:00
SQ9EZE-142026-09-03 11:47:1948.8382120.67879137°102km/h11653m4.5m/s-52.3°C14.2%213.4hPa0V00:00:0000:00:0000:00:00
SQ9EZE-132026-09-03 11:47:1448.8391820.67736138°115km/h11629m4.5m/s-52.4°C15.3%214.1hPa0V00:00:0000:00:0000:00:00
GYPAP8-172026-09-03 11:47:0948.8402820.67591140°110km/h11606m4.8m/s-52.5°C15.6%214.8hPa0V00:00:0000:00:0000:00:00
SQ9EZE-142026-09-03 11:47:0248.8415120.67430142°110km/h11577m4.5m/s-52.5°C15.2%215.8hPa0V00:00:0000:00:0000:00:00
SP9SOS2026-09-03 11:46:4248.8462720.66836140°131km/h11472m5.8m/s0°C0%0hPa0V00:00:0000:00:0000:00:00
SQ9EZE-132026-09-03 11:46:1548.8525720.65996141°124km/h11340m5.3m/s-54.5°C21.7%223.9hPa0V00:00:0000:00:0000:00:00
GYPAP8-172026-09-03 11:46:0448.8552220.65678140°113km/h11290m4.3m/s-55.3°C28.6%225.7hPa0V00:00:0000:00:0000:00:00
SQ9EZE-132026-09-03 11:46:0048.8562120.65541135°104km/h11261m5.1m/s-55.6°C30.7%226.7hPa0V00:00:0000:00:0000:00:00
SQ9EZE-132026-09-03 11:45:4348.8596920.65051140°115km/h11180m4.7m/s-55.4°C37.7%229.7hPa0V00:00:0000:00:0000:00:00
SQ9EZE-132026-09-03 11:45:2848.8634720.64626146°126km/h11103m4.5m/s-54.9°C45.2%232.5hPa0V00:00:0000:00:0000:00:00
SQ9EZE-132026-09-03 11:45:1148.8674820.64191142°133km/h11017m5.4m/s-55.1°C46.5%235.6hPa0V00:00:0000:00:0000:00:00
GYPAP8-172026-09-03 11:45:1048.8677420.64159142°131km/h11012m4.9m/s-55.1°C46.0%235.7hPa0V00:00:0000:00:0000:00:00
SQ9EZE-142026-09-03 11:44:5948.8709520.63818148°124km/h10950m5.3m/s-54.7°C48.1%238.1hPa0V00:00:0000:00:0000:00:00
SQ9EZE-132026-09-03 11:44:5548.8717320.63736146°130km/h10937m4.4m/s-54.7°C47.1%238.5hPa0V00:00:0000:00:0000:00:00
SQ9EZE-142026-09-03 11:44:4248.8751120.63370148°119km/h10873m6.9m/s-54.3°C45.3%241.0hPa0V00:00:0000:00:0000:00:00
HA6NAB-112026-09-03 11:44:3948.8758820.63296149°120km/h10857m6.7m/s0°C0%0hPa0V00:00:0000:00:0000:00:00
HA6NAB-112026-09-03 11:44:3348.8773820.63149149°117km/h10824m6.4m/s0°C0%0hPa0V00:00:0000:00:0000:00:00
HA6NAB-112026-09-03 11:44:2648.8792120.62973143°120km/h10786m5.4m/s0°C0%0hPa0V00:00:0000:00:0000:00:00
SQ9EZE-132026-09-03 11:44:2348.8799320.62882141°126km/h10771m5.0m/s-53.6°C42.8%244.7hPa0V00:00:0000:00:0000:00:00
SQ9EZE-132026-09-03 11:44:0848.8836820.62465146°122km/h10688m4.6m/s-52.7°C42.8%248.0hPa0V00:00:0000:00:0000:00:00
GYPAP8-172026-09-03 11:44:0348.8852320.62293143°122km/h10656m2.7m/s-52.4°C42.8%249.2hPa0V00:00:0000:00:0000:00:00
SQ9EZE-132026-09-03 11:43:5248.8879120.62030147°133km/h10606m4.5m/s-52.0°C41.9%251.2hPa0V00:00:0000:00:0000:00:00
SQ9EZE-132026-09-03 11:43:3548.8924520.61534145°130km/h10523m5.4m/s-51.2°C39.0%254.4hPa0V00:00:0000:00:0000:00:00
SQ9EZE-132026-09-03 11:43:1448.8982720.60908146°126km/h10420m4.1m/s-50.2°C35.3%258.5hPa0V00:00:0000:00:0000:00:00
GYPAP8-172026-09-03 11:42:5848.9022320.60485146°124km/h10338m5.7m/s-49.6°C35.8%261.7hPa0V00:00:0000:00:0000:00:00
SQ9EZE-132026-09-03 11:42:5648.9027620.60430148°130km/h10328m4.7m/s-49.6°C37.2%262.1hPa0V00:00:0000:00:0000:00:00
HA6NAB-112026-09-03 11:42:4848.9052020.60171143°130km/h10285m4.6m/s0°C0%0hPa0V00:00:0000:00:0000:00:00
SQ9EZE-132026-09-03 11:42:4148.9067920.59995151°124km/h10254m4.0m/s-49.0°C35.6%265.1hPa0V00:00:0000:00:0000:00:00
SQ9EZE-142026-09-03 11:42:3848.9076020.59926150°122km/h10238m6.7m/s-48.9°C34.7%265.8hPa0V00:00:0000:00:0000:00:00
HA6NAB-112026-09-03 11:42:3348.9089820.59792148°131km/h10206m5.6m/s0°C0%0hPa0V00:00:0000:00:0000:00:00
SQ9EZE-132026-09-03 11:42:2448.9113520.59551149°130km/h10160m5.0m/s-48.4°C33.0%268.8hPa0V00:00:0000:00:0000:00:00
SQ9EZE-142026-09-03 11:42:2248.9119120.59499149°128km/h10149m5.2m/s-48.3°C34.0%269.3hPa0V00:00:0000:00:0000:00:00
SQ9EZE-132026-09-03 11:42:0848.9158620.59130147°119km/h10080m4.4m/s-47.9°C34.7%272.1hPa0V00:00:0000:00:0000:00:00
GYPAP8-172026-09-03 11:41:5448.9192020.58847148°113km/h10018m6.0m/s-47.3°C34.4%274.7hPa0V00:00:0000:00:0000:00:00
SQ9EZE-132026-09-03 11:41:4848.9206720.58718152°115km/h9987m3.8m/s-47.1°C34.6%276.0hPa0V00:00:0000:00:0000:00:00
SQ9EZE-132026-09-03 11:41:3248.9246920.58373152°115km/h9901m4.8m/s-46.5°C38.2%279.6hPa0V00:00:0000:00:0000:00:00
SQ9EZE-132026-09-03 11:41:1748.9285020.58075150°106km/h9824m4.8m/s-45.9°C39.6%282.8hPa0V00:00:0000:00:0000:00:00
SQ9EZE-132026-09-03 11:40:5948.9324120.57743145°102km/h9741m3.8m/s-45.4°C45.3%286.4hPa0V00:00:0000:00:0000:00:00
GYPAP8-172026-09-03 11:40:5248.9340120.57598154°110km/h9706m7.2m/s-45.1°C43.0%288.0hPa0V00:00:0000:00:0000:00:00
SQ9EZE-132026-09-03 11:40:4348.9360120.57423154°102km/h9660m4.8m/s-44.7°C40.9%289.9hPa0V00:00:0000:00:0000:00:00
SQ9EZE-132026-09-03 11:40:2848.9395020.57132154°99km/h9581m5.6m/s-44.0°C35.1%293.2hPa0V00:00:0000:00:0000:00:00
SQ9EZE-142026-09-03 11:40:1848.9417020.56946152°97km/h9532m4.9m/s-43.7°C32.5%295.5hPa0V00:00:0000:00:0000:00:00
SQ9EZE-132026-09-03 11:40:1248.9429720.56843155°95km/h9496m6.2m/s-43.4°C31.6%297.1hPa0V00:00:0000:00:0000:00:00
SQ9EZE-142026-09-03 11:40:0248.9448620.56684151°95km/h9446m3.4m/s-43.0°C31.4%299.1hPa0V00:00:0000:00:0000:00:00
SQ9EZE-132026-09-03 11:39:5648.9462920.56572155°91km/h9411m3.4m/s-42.8°C34.3%300.7hPa0V00:00:0000:00:0000:00:00
GYPAP8-172026-09-03 11:39:4848.9476320.56469154°88km/h9380m4.6m/s-42.7°C38.9%302.2hPa0V00:00:0000:00:0000:00:00
HA6NAB-112026-09-03 11:39:3948.9493220.56306147°88km/h9332m5.4m/s0°C0%0hPa0V00:00:0000:00:0000:00:00
HA6NAB-112026-09-03 11:39:3248.9505820.56179143°88km/h9298m4.3m/s0°C0%0hPa0V00:00:0000:00:0000:00:00
SQ9EZE-132026-09-03 11:39:2348.9521620.55998138°88km/h9255m3.5m/s-42.0°C46.3%307.9hPa0V00:00:0000:00:0000:00:00
SQ9EZE-132026-09-03 11:39:0848.9546320.55669141°78km/h9168m7.4m/s-41.2°C42.9%311.8hPa0V00:00:0000:00:0000:00:00
OE3JTB-152026-09-03 11:38:5448.9567620.55399143°60km/h9085m5.1m/s0°C0%0hPa0V00:00:0000:00:0000:00:00
SQ9EZE-132026-09-03 11:38:5248.9569220.55381144°78km/h9081m3.7m/s-40.3°C39.2%315.8hPa0V00:00:0000:00:0000:00:00
GYPAP8-172026-09-03 11:38:4648.9578820.55275147°77km/h9053m5.9m/s-40.1°C36.7%317.2hPa0V00:00:0000:00:0000:00:00
SQ9EZE-132026-09-03 11:38:3648.9594220.55094144°84km/h9000m7.3m/s-39.6°C36.3%319.7hPa0V00:00:0000:00:0000:00:00
SQ9EZE-132026-09-03 11:38:1948.9621120.54754141°77km/h8905m4.4m/s-39.0°C41.4%324.2hPa0V00:00:0000:00:0000:00:00
SQ9EZE-132026-09-03 11:38:0348.9645520.54399133°80km/h8819m4.2m/s-38.5°C54.1%328.3hPa0V00:00:0000:00:0000:00:00
SQ9EZE-142026-09-03 11:37:5948.9652520.54300131°82km/h8790m6.1m/s-38.3°C52.5%329.6hPa0V00:00:0000:00:0000:00:00
SQ9EZE-132026-09-03 11:37:4748.9668020.54032135°86km/h8739m4.2m/s-37.9°C51.6%332.1hPa0V00:00:0000:00:0000:00:00
SQ9EZE-142026-09-03 11:37:4248.9675320.53916135°80km/h8715m5.5m/s-37.7°C50.6%333.2hPa0V00:00:0000:00:0000:00:00
SQ9EZE-132026-09-03 11:37:3248.9690920.53684132°80km/h8660m5.5m/s-37.2°C54.6%335.9hPa0V00:00:0000:00:0000:00:00
SQ9EZE-132026-09-03 11:37:1648.9712820.53345132°89km/h8593m6.8m/s-36.7°C62.2%339.2hPa0V00:00:0000:00:0000:00:00
SQ9EZE-132026-09-03 11:37:0048.9734220.52960129°78km/h8504m4.3m/s-35.9°C53.8%343.7hPa0V00:00:0000:00:0000:00:00
GYPAP8-172026-09-03 11:36:4948.9748520.52717135°77km/h8449m3.4m/s-35.4°C39.0%346.3hPa0V00:00:0000:00:0000:00:00
SQ9EZE-132026-09-03 11:36:4448.9755420.52586127°69km/h8417m5.0m/s-35.1°C38.4%347.8hPa0V00:00:0000:00:0000:00:00
SQ9EZE-132026-09-03 11:36:2848.9775720.52245134°75km/h8340m5.6m/s-34.5°C38.2%351.6hPa0V00:00:0000:00:0000:00:00
SQ9EZE-132026-09-03 11:36:1148.9796220.51907140°77km/h8258m4.3m/s-33.7°C41.7%355.8hPa0V00:00:0000:00:0000:00:00
SQ9EZE-132026-09-03 11:35:5548.9817320.51572135°77km/h8175m5.2m/s-33.0°C36.1%360.1hPa0V00:00:0000:00:0000:00:00
HA6NAB-112026-09-03 11:35:4248.9833520.51315141°68km/h8110m4.7m/s0°C0%0hPa0V00:00:0000:00:0000:00:00
SQ9EZE-132026-09-03 11:35:4048.9837620.51256134°78km/h8097m3.2m/s-32.2°C35.0%364.1hPa0V00:00:0000:00:0000:00:00
SQ9EZE-142026-09-03 11:35:3748.9841420.51188130°77km/h8084m5.1m/s-32.1°C35.1%364.9hPa0V00:00:0000:00:0000:00:00
SQ9EZE-132026-09-03 11:35:2448.9857320.50932140°69km/h8020m3.4m/s-31.5°C32.7%368.1hPa0V00:00:0000:00:0000:00:00
SQ9EZE-142026-09-03 11:35:2048.9860820.50877131°66km/h8004m6.7m/s-31.4°C32.2%368.9hPa0V00:00:0000:00:0000:00:00
SQ9EZE-132026-09-03 11:35:0748.9874720.50634139°60km/h7932m5.1m/s-30.7°C33.5%372.6hPa0V00:00:0000:00:0000:00:00
SQ9EZE-132026-09-03 11:34:5148.9893620.50339138°58km/h7856m5.0m/s-30.0°C31.4%376.7hPa0V00:00:0000:00:0000:00:00
GYPAP8-172026-09-03 11:34:4248.9904520.50166138°73km/h7814m4.8m/s-29.6°C30.0%378.9hPa0V00:00:0000:00:0000:00:00
SQ9EZE-132026-09-03 11:34:3648.9912520.50053131°66km/h7785m5.7m/s-29.3°C29.6%380.5hPa0V00:00:0000:00:0000:00:00
SQ9EZE-132026-09-03 11:34:1948.9931520.49738135°69km/h7692m6.3m/s-28.6°C25.7%385.3hPa0V00:00:0000:00:0000:00:00
SQ9EZE-132026-09-03 11:34:0348.9947320.49437139°57km/h7613m4.0m/s-27.9°C24.4%389.7hPa0V00:00:0000:00:0000:00:00
SQ9EZE-132026-09-03 11:33:3948.9971420.48990126°60km/h7495m6.6m/s-27.2°C29.6%396.1hPa0V00:00:0000:00:0000:00:00
SQ9EZE-132026-09-03 11:33:2448.9985620.48658125°58km/h7411m6.2m/s-26.8°C36.5%400.8hPa0V00:00:0000:00:0000:00:00
SQ9EZE-142026-09-03 11:33:1548.9991820.48499124°62km/h7373m4.2m/s-26.5°C39.4%402.9hPa0V00:00:0000:00:0000:00:00
SQ9EZE-132026-09-03 11:33:0748.9998220.48332118°66km/h7331m5.5m/s-26.4°C43.9%405.3hPa0V00:00:0000:00:0000:00:00
SQ9EZE-142026-09-03 11:33:0049.0004420.48185121°64km/h7292m5.0m/s-26.3°C49.5%407.4hPa0V00:00:0000:00:0000:00:00
SQ9EZE-132026-09-03 11:32:5249.0010820.48014124°55km/h7242m7.1m/s-26.1°C55.7%410.3hPa0V00:00:0000:00:0000:00:00
SQ9EZE-132026-09-03 11:32:3549.0023020.47740127°51km/h7160m3.2m/s-25.9°C83.4%414.8hPa0V00:00:0000:00:0000:00:00
OE3JTB-152026-09-03 11:32:2849.0029320.47608123°51km/h7119m4.1m/s0°C0%0hPa0V00:00:0000:55:1600:00:00
SQ9EZE-132026-09-03 11:32:1949.0034820.47476122°57km/h7075m4.8m/s-25.2°C83.6%419.6hPa0V00:00:0000:00:0000:00:00
SQ9EZE-132026-09-03 11:32:0349.0045120.47196109°47km/h6995m3.5m/s-24.5°C87.0%424.3hPa0V00:00:0000:00:0000:00:00
OE3JTB-152026-09-03 11:31:5749.0048820.47073123°44km/h6955m5.4m/s0°C0%0hPa0V00:00:0000:00:0000:00:00
OM5KV2026-09-03 11:31:5549.0049520.47057126°47km/h6950m4.6m/s-24.2°C88.4%426.9hPa0V00:00:0000:00:0000:00:00
OM5KV2026-09-03 11:31:5449.0050220.47042126°47km/h6945m5.5m/s-24.2°C87.8%427.2hPa0V00:00:0000:00:0000:00:00
OM5KV2026-09-03 11:31:4949.0053820.46947114°47km/h6908m6.4m/s-23.8°C86.9%429.4hPa0V00:00:0000:00:0000:00:00
SQ9EZE-132026-09-03 11:31:4749.0054320.46931114°44km/h6902m6.1m/s-23.8°C86.7%429.7hPa0V00:00:0000:00:0000:00:00
OM5KV2026-09-03 11:31:4449.0055520.46886112°38km/h6885m5.8m/s-23.6°C87.3%430.7hPa0V00:00:0000:00:0000:00:00
OM5KV2026-09-03 11:31:4349.0055820.46873112°38km/h6879m5.6m/s-23.6°C87.0%431.0hPa0V00:00:0000:00:0000:00:00
OM5KV2026-09-03 11:31:3849.0058220.46787117°44km/h6844m5.6m/s-23.3°C86.6%433.1hPa0V00:00:0000:00:0000:00:00
SQ9EZE-132026-09-03 11:31:3249.0061920.46690119°47km/h6809m5.7m/s-23.0°C88.0%435.2hPa0V00:00:0000:00:0000:00:00
OM5KV2026-09-03 11:31:3149.0061920.46690119°47km/h6809m5.7m/s-23.0°C88.0%435.2hPa0V00:00:0000:00:0000:00:00
OE3JTB-152026-09-03 11:31:2649.0065320.46603119°47km/h6773m3.9m/s0°C0%0hPa0V00:00:0000:00:0000:00:00
OM5KV2026-09-03 11:31:2549.0065320.46603119°46km/h6773m4.0m/s-22.7°C86.8%437.3hPa0V00:00:0000:00:0000:00:00
GYPAP8-172026-09-03 11:31:2349.0066420.46571120°49km/h6761m5.0m/s-22.7°C87.0%437.9hPa0V00:00:0000:00:0000:00:00
OM5KV2026-09-03 11:31:2049.0068420.46522124°51km/h6744m4.8m/s-22.5°C86.1%439.0hPa0V00:00:0000:00:0000:00:00
OM5KV2026-09-03 11:31:1549.0072120.46420119°51km/h6714m4.2m/s-22.2°C88.3%440.9hPa0V00:00:0000:00:0000:00:00
OM5KV2026-09-03 11:31:1449.0072620.46403118°49km/h6710m2.3m/s-22.2°C88.5%441.1hPa0V00:00:0000:00:0000:00:00
OM5KV2026-09-03 11:31:0849.0075220.46314113°49km/h6684m5.3m/s-22.0°C86.3%442.7hPa0V00:00:0000:00:0000:00:00
OM5KV2026-09-03 11:31:0749.0075620.46297112°47km/h6678m5.6m/s-22.0°C85.9%443.1hPa0V00:00:0000:00:0000:00:00
OM5KV2026-09-03 11:31:0049.0078920.46176114°55km/h6642m3.5m/s-21.6°C85.2%445.2hPa0V00:00:0000:00:0000:00:00
SQ9EZE-132026-09-03 11:30:5949.0079520.46156112°57km/h6639m2.1m/s-21.6°C85.2%445.4hPa0V00:00:0000:00:0000:00:00
SQ9EZE-142026-09-03 11:30:5649.0081120.46098116°47km/h6626m5.2m/s-21.5°C84.3%446.3hPa0V00:00:0000:00:0000:00:00
OM5KV2026-09-03 11:30:5549.0081620.46082115°46km/h6621m5.3m/s-21.5°C84.5%446.6hPa0V00:00:0000:00:0000:00:00
OM5KV2026-09-03 11:30:4549.0085420.45901115°49km/h6558m3.7m/s-20.9°C79.6%450.4hPa0V00:00:0000:00:0000:00:00
SQ9EZE-132026-09-03 11:30:4449.0085920.45883116°51km/h6553m6.5m/s-20.9°C79.1%450.7hPa0V00:00:0000:00:0000:00:00
OM5KV2026-09-03 11:30:4249.0086520.45865118°53km/h6547m4.1m/s-20.9°C79.2%451.0hPa0V00:00:0000:00:0000:00:00
OM5KV2026-09-03 11:30:4049.0088020.45814113°44km/h6534m4.2m/s-20.7°C79.8%451.9hPa0V00:00:0000:00:0000:00:00
GYPAP8-172026-09-03 11:30:3849.0088420.45798111°44km/h6529m4.5m/s-20.7°C79.9%452.1hPa0V00:00:0000:00:0000:00:00
OM5KV2026-09-03 11:30:3749.0088820.45782111°44km/h6525m3.4m/s-20.7°C79.9%452.3hPa0V00:00:0000:00:0000:00:00
OM5KV2026-09-03 11:30:3649.0089220.45766112°46km/h6521m4.6m/s-20.7°C79.6%452.6hPa0V00:00:0000:00:0000:00:00
SQ9EZE-132026-09-03 11:30:2749.0093120.45616103°47km/h6476m5.0m/s-20.3°C77.3%455.3hPa0V00:00:0000:00:0000:00:00
OM5KV2026-09-03 11:30:2249.0094920.45529115°47km/h6449m4.7m/s-20.0°C75.9%457.1hPa0V00:00:0000:00:0000:00:00
OM5KV2026-09-03 11:30:1849.0097220.45469122°44km/h6430m7.3m/s-19.9°C76.3%458.4hPa0V00:00:0000:00:0000:00:00
OM5KV2026-09-03 11:30:1749.0097820.45453118°47km/h6424m4.1m/s-19.8°C76.7%458.7hPa0V00:00:0000:00:0000:00:00
OM5KV2026-09-03 11:30:1349.0100120.45365110°47km/h6399m3.8m/s-19.6°C76.6%460.3hPa0V00:00:0000:00:0000:00:00
SQ9EZE-132026-09-03 11:30:1049.0101020.45332117°44km/h6390m4.9m/s-19.5°C76.6%460.8hPa0V00:00:0000:00:0000:00:00
OM5KV2026-09-03 11:30:0849.0102120.45301119°46km/h6382m5.5m/s-19.5°C76.4%461.2hPa0V00:00:0000:00:0000:00:00
OM5KV2026-09-03 11:29:5649.0106620.45093111°46km/h6319m3.6m/s-19.0°C71.9%465.1hPa0V00:00:0000:00:0000:00:00
GYPAP8-172026-09-03 11:29:5349.0107420.45060111°47km/h6310m5.7m/s-18.9°C72.1%465.7hPa0V00:00:0000:00:0000:00:00
OM5KV2026-09-03 11:29:5049.0108820.45010114°46km/h6297m4.5m/s-18.8°C72.6%466.5hPa0V00:00:0000:00:0000:00:00
OM5KV2026-09-03 11:29:4749.0110120.44945104°44km/h6279m4.5m/s-18.7°C73.3%467.6hPa0V00:00:0000:00:0000:00:00
OM5KV2026-09-03 11:29:4549.0110320.44929106°44km/h6274m4.7m/s-18.7°C73.3%468.1hPa0V00:00:0000:00:0000:00:00
OM5KV2026-09-03 11:29:3949.0112520.44831114°49km/h6247m5.3m/s-18.6°C76.8%469.6hPa0V00:00:0000:00:0000:00:00
OM5KV2026-09-03 11:29:3449.0114420.44756112°38km/h6225m5.5m/s-18.5°C77.1%471.1hPa0V00:00:0000:00:0000:00:00
SQ9EZE-132026-09-03 11:29:2449.0118020.44600111°42km/h6173m3.7m/s-18.2°C78.3%474.5hPa0V00:00:0000:00:0000:00:00
OM5KV2026-09-03 11:29:2349.0118320.44584114°42km/h6168m6.1m/s-18.1°C78.5%474.7hPa0V00:00:0000:00:0000:00:00
OM5KV2026-09-03 11:29:1749.0122020.44478119°53km/h6136m7.3m/s-17.9°C78.5%476.7hPa0V00:00:0000:00:0000:00:00
OM5KV2026-09-03 11:29:1149.0124920.44374111°46km/h6100m7.3m/s-17.6°C76.7%479.1hPa0V00:00:0000:00:0000:00:00
GYPAP8-172026-09-03 11:29:0949.0125820.44342114°44km/h6089m5.0m/s-17.5°C76.7%479.9hPa0V00:00:0000:00:0000:00:00
SQ9EZE-132026-09-03 11:29:0849.0126220.44327115°46km/h6083m7.3m/s-17.5°C76.7%480.2hPa0V00:00:0000:00:0000:00:00
OM5KV2026-09-03 11:29:0449.0128420.44262121°47km/h6058m7.0m/s0°C0%481.8hPa0V00:00:0000:00:0000:00:00
OM5KV2026-09-03 11:29:0349.0129620.44230119°47km/h6046m5.0m/s-17.2°C75.1%482.6hPa0V00:00:0000:00:0000:00:00
OE3JTB-152026-09-03 11:28:5849.0132420.44147122°53km/h6015m7.1m/s0°C0%0hPa0V00:00:0000:51:4600:00:00
OM5KV2026-09-03 11:28:5649.0133120.44130122°53km/h6008m6.9m/s-16.9°C74.4%485.0hPa0V00:00:0000:00:0000:00:00
OM5KV2026-09-03 11:28:5449.0135120.44077116°51km/h5990m5.4m/s0°C0%0hPa0V00:00:0000:00:0000:00:00
SQ9EZE-132026-09-03 11:28:5249.0135620.44059112°49km/h5984m4.9m/s-16.7°C74.8%486.6hPa0V00:00:0000:00:0000:00:00
OM5KV2026-09-03 11:28:5049.0136420.44024109°47km/h5974m5.3m/s-16.6°C74.5%487.1hPa0V00:00:0000:00:0000:00:00
OM5KV2026-09-03 11:28:4749.0137720.43974117°49km/h5960m4.9m/s0°C0%0hPa0V00:00:0000:00:0000:00:00
SQ9EZE-132026-09-03 11:28:3849.0144620.43797118°49km/h5905m5.3m/s-16.0°C72.0%491.6hPa0V00:00:0000:00:0000:00:00
OM5KV2026-09-03 11:28:3649.0145220.43780119°49km/h5900m5.0m/s0°C0%0hPa0V00:00:0000:00:0000:00:00
SQ9EZE-142026-09-03 11:28:3549.0145820.43764120°47km/h5895m4.8m/s-16.0°C72.0%492.4hPa0V00:00:0000:00:0000:00:00
OE3JTB-152026-09-03 11:28:2949.0151320.43629119°60km/h5857m7.6m/s0°C0%0hPa0V00:00:0000:00:0000:00:00
GYPAP8-172026-09-03 11:28:2649.0153220.43568113°57km/h5837m6.1m/s-15.8°C65.0%496.1hPa0V00:00:0000:00:0000:00:00
OM5KV2026-09-03 11:28:2449.0153720.43548112°57km/h5831m6.6m/s0°C0%0hPa0V00:00:0000:00:0000:00:00
SQ9EZE-132026-09-03 11:28:2149.0155620.43484119°64km/h5816m5.9m/s-15.6°C64.4%497.6hPa0V00:00:0000:00:0000:00:00
SQ9EZE-142026-09-03 11:28:2049.0156420.43463124°62km/h5811m4.1m/s-15.6°C0%497.8hPa0V00:00:0000:00:0000:00:00
SQ9EZE-132026-09-03 11:28:0649.0165520.43196116°57km/h5733m4.2m/s-15.0°C63.3%503.0hPa0V00:00:0000:00:0000:00:00
OM5KV2026-09-03 11:28:0049.0168620.43083114°58km/h5704m4.4m/s-14.8°C68.7%505.0hPa0V00:00:0000:00:0000:00:00
OM5KV2026-09-03 11:27:5749.0170620.43018117°60km/h5691m3.6m/s-14.7°C0%0hPa0V00:00:0000:00:0000:00:00
OM5KV2026-09-03 11:27:5249.0173720.42892109°57km/h5660m7.2m/s-14.5°C0%0hPa0V00:00:0000:00:0000:00:00
OM5KV2026-09-03 11:27:4649.0176320.42795114°49km/h5627m5.7m/s-14.3°C0%0hPa0V00:00:0000:00:0000:00:00
OM5KV2026-09-03 11:27:4149.0178420.42679104°58km/h5598m2.8m/s-14.1°C0%0hPa0V00:00:0000:00:0000:00:00
GYPAP8-172026-09-03 11:27:4049.0178420.42679104°58km/h5598m2.8m/s-14.1°C64.6%511.9hPa0V00:00:0000:00:0000:00:00
SQ9EZE-132026-09-03 11:27:3549.0180520.42574110°51km/h5580m5.5m/s-14.1°C77.5%513.3hPa0V00:00:0000:00:0000:00:00
OM5KV2026-09-03 11:27:3349.0181220.42537105°47km/h5567m6.6m/s-14.1°C0%0hPa0V00:00:0000:00:0000:00:00
OM5KV2026-09-03 11:27:2749.0183120.42421111°57km/h5538m5.0m/s-13.9°C0%0hPa0V00:00:0000:00:0000:00:00
OM5KV2026-09-03 11:27:2149.0186620.42305117°53km/h5509m4.2m/s-13.7°C0%0hPa0V00:00:0000:00:0000:00:00
SQ9EZE-132026-09-03 11:27:1949.0187620.42268109°53km/h5501m4.1m/s-13.6°C66.5%518.4hPa0V00:00:0000:00:0000:00:00
OM5KV2026-09-03 11:27:1149.0190820.42093109°49km/h5469m6.3m/s-13.5°C0%0hPa0V00:00:0000:00:0000:00:00
OM5KV2026-09-03 11:27:0849.0192020.42040112°51km/h5452m5.2m/s0°C0%0hPa0V00:00:0000:00:0000:00:00
SQ9EZE-132026-09-03 11:27:0249.0194920.41919109°49km/h5417m6.7m/s-13.1°C62.8%524.0hPa0V00:00:0000:00:0000:00:00
GYPAP8-172026-09-03 11:26:5649.0198620.41793116°58km/h5386m4.4m/s-12.8°C61.6%526.4hPa0V00:00:0000:00:0000:00:00
OM5KV2026-09-03 11:26:5249.0200120.41736113°51km/h5374m4.1m/s-12.7°C0%0hPa0V00:00:0000:00:0000:00:00
OM5KV2026-09-03 11:26:4849.0202720.41645117°51km/h5350m4.0m/s-12.6°C0%0hPa0V00:00:0000:00:0000:00:00
OM5KV2026-09-03 11:26:4049.0206220.41516108°57km/h5326m4.0m/s-12.5°C0%0hPa0V00:00:0000:00:0000:00:00
OM5KV2026-09-03 11:26:3549.0208120.41409108°55km/h5312m4.1m/s0°C0%0hPa0V00:00:0000:00:0000:00:00
SQ9EZE-132026-09-03 11:26:3149.0210220.41339124°49km/h5289m6.2m/s-12.2°C49.5%533.1hPa0V00:00:0000:00:0000:00:00
OM5KV2026-09-03 11:26:2949.0211520.41308124°46km/h5277m5.4m/s0°C0%0hPa0V00:00:0000:00:0000:00:00
SQ9EZE-132026-09-03 11:26:1649.0220520.41089123°49km/h5218m4.0m/s-11.6°C37.9%538.1hPa0V00:00:0000:00:0000:00:00
GYPAP8-172026-09-03 11:26:1549.0221120.41073126°47km/h5214m4.3m/s-11.6°C36.6%538.5hPa0V00:00:0000:00:0000:00:00
SQ9EZE-142026-09-03 11:26:1449.0221120.41073126°47km/h5214m4.3m/s-11.6°C0%538.5hPa0V00:00:0000:00:0000:00:00
SQ9EZE-142026-09-03 11:25:5949.0230820.40886127°42km/h5140m4.9m/s-11.0°C0%543.6hPa0V00:00:0000:00:0000:00:00
SQ9EZE-132026-09-03 11:25:4449.0239720.40668121°44km/h5069m5.8m/s-10.9°C30.9%548.9hPa0V00:00:0000:00:0000:00:00
GYPAP8-172026-09-03 11:25:3049.0249120.40473131°46km/h5002m4.8m/s-10.6°C0%553.6hPa0V00:00:0000:00:0000:00:00
SQ9EZE-132026-09-03 11:25:2849.0250520.40445127°44km/h4994m3.4m/s-10.6°C33.7%554.1hPa0V00:00:0000:00:0000:00:00
SQ9EZE-132026-09-03 11:25:1249.0259220.40276130°26km/h4919m3.3m/s-10.3°C38.1%559.4hPa0V00:00:0000:00:0000:00:00
SQ9EZE-132026-09-03 11:24:5749.0266820.40146116°31km/h4841m5.5m/s-10.0°C49.9%564.9hPa0V00:00:0000:00:0000:00:00
GYPAP8-172026-09-03 11:24:4649.0270020.40027109°29km/h4798m3.3m/s0°C0%568.3hPa0V00:00:0000:00:0000:00:00
SQ9EZE-132026-09-03 11:24:4049.0272320.39975126°26km/h4778m2.9m/s-9.7°C59.1%569.8hPa0V00:00:0000:00:0000:00:00
SQ9EZE-132026-09-03 11:24:2549.0276120.3979285°27km/h4714m3.6m/s-9.1°C58.0%574.5hPa0V00:00:0000:00:0000:00:00
SQ9EZE-132026-09-03 11:24:1049.0278820.39615104°46km/h4649m3.4m/s-8.5°C0%579.4hPa0V00:00:0000:00:0000:00:00
GYPAP8-172026-09-03 11:24:0349.0280520.3949195°40km/h4616m5.0m/s0°C0%581.9hPa0V00:00:0000:00:0000:00:00
SQ9EZE-132026-09-03 11:23:5549.0280920.3937499°40km/h4589m4.3m/s0°C0%583.8hPa0V00:00:0000:00:0000:00:00
SQ9EZE-142026-09-03 11:23:5049.0281820.3930395°37km/h4563m4.5m/s0°C0%585.9hPa0V00:00:0000:00:0000:00:00
SQ9EZE-132026-09-03 11:23:3949.0284320.39168124°40km/h4516m4.7m/s0°C0%0hPa0V00:00:0000:00:0000:00:00
SQ9EZE-142026-09-03 11:23:3449.0286320.39111100°33km/h4491m4.4m/s0°C0%0hPa0V00:00:0000:00:0000:00:00
SQ9EZE-132026-09-03 11:23:2349.0289420.38950113°31km/h4443m5.0m/s0°C0%0hPa0V00:00:0000:00:0000:00:00
SQ9EZE-142026-09-03 11:23:1949.0290720.38912129°29km/h4427m4.1m/s0°C0%0hPa0V00:00:0000:00:0000:00:00
GYPAP8-172026-09-03 11:23:1749.0291720.38895139°35km/h4420m2.6m/s0°C0%596.5hPa0V00:00:0000:00:0000:00:00
SQ9EZE-132026-09-03 11:23:0749.0295620.38803144°18km/h4372m4.1m/s0°C0%0hPa0V00:00:0000:00:0000:00:00
SQ9EZE-132026-09-03 11:22:4749.0301620.3864792°26km/h4282m3.8m/s0°C0%0hPa0V00:00:0000:00:0000:00:00
GYPAP8-172026-09-03 11:22:3249.0305220.38529134°20km/h4218m4.8m/s0°C0%612.2hPa0V00:00:0000:00:0000:00:00
GYPAP8-172026-09-03 11:21:4749.0313220.37996115°29km/h3985m5.6m/s0°C0%630.7hPa0V00:00:0000:00:0000:00:00
GYPAP8-172026-09-03 11:21:0449.0316920.37489120°29km/h3748m4.2m/s0°C0%649.9hPa0V00:00:0000:00:0000:00:00
GYPAP8-172026-09-03 11:20:1449.0316920.3694973°31km/h3510m4.7m/s0°C0%0hPa0V00:00:0000:00:0000:00:00


GPX KML Map

© wettersonde.net (DO2JMG) - 2026  -  -